Wetterdaten: Dienstag, 17.06.2014
Datum Zeit Temp. Aussen +5cm Feuchte Auss Luftdruck Regen Sonnenschein Regendauer UV Solar Windben
17.06.2014 00:00 14,9 C 13,9 C 80 % 1021,2 hPa 0,0 l/m 0 min 0 min 0,0 UV-I 0 W/m 8,4 km/h (2 Bft)
17.06.2014 00:02 14,9 C 13,9 C 80 % 1021,2 hPa 0,0 l/m 0 min 0 min 0,0 UV-I 0 W/m 12,6 km/h (3 Bft)
17.06.2014 00:06 14,9 C 13,9 C 80 % 1021,1 hPa 0,0 l/m 0 min 0 min 0,0 UV-I 0 W/m 12,6 km/h (3 Bft)
17.06.2014 00:08 14,9 C 13,9 C 80 % 1021,2 hPa 0,0 l/m 0 min 0 min 0,0 UV-I 0 W/m 12,6 km/h (3 Bft)
17.06.2014 00:10 14,9 C 13,9 C 80 % 1021,2 hPa 0,0 l/m 0 min 0 min 0,0 UV-I 0 W/m 16,7 km/h (3 Bft)
17.06.2014 00:12 14,9 C 13,3 C 80 % 1021,1 hPa 0,0 l/m 0 min 0 min 0,0 UV-I 0 W/m 12,6 km/h (3 Bft)
17.06.2014 00:14 14,8 C 13,3 C 80 % 1021,2 hPa 0,0 l/m 0 min 0 min 0,0 UV-I 0 W/m 12,6 km/h (3 Bft)
17.06.2014 00:16 14,8 C 13,3 C 80 % 1021,1 hPa 0,0 l/m 0 min 0 min 0,0 UV-I 0 W/m 16,7 km/h (3 Bft)
17.06.2014 00:18 14,8 C 13,3 C 80 % 1021,1 hPa 0,0 l/m 0 min 0 min 0,0 UV-I 0 W/m 16,7 km/h (3 Bft)
17.06.2014 00:20 14,7 C 13,3 C 80 % 1021,2 hPa 0,0 l/m 0 min 0 min 0,0 UV-I 0 W/m 10,5 km/h (2 Bft)
17.06.2014 00:22 14,7 C 13,3 C 80 % 1021,1 hPa 0,0 l/m 0 min 0 min 0,0 UV-I 0 W/m 12,6 km/h (3 Bft)
17.06.2014 00:24 14,7 C 13,3 C 81 % 1021,2 hPa 0,0 l/m 0 min 0 min 0,0 UV-I 0 W/m 14,6 km/h (3 Bft)
17.06.2014 00:26 14,6 C 13,3 C 81 % 1021,1 hPa 0,0 l/m 0 min 0 min 0,0 UV-I 0 W/m 14,6 km/h (3 Bft)
17.06.2014 00:28 14,6 C 13,3 C 81 % 1021,2 hPa 0,0 l/m 0 min 0 min 0,0 UV-I 0 W/m 12,6 km/h (3 Bft)
17.06.2014 00:30 14,6 C 13,3 C 81 % 1021,2 hPa 0,0 l/m 0 min 0 min 0,0 UV-I 0 W/m 6,3 km/h (2 Bft)
17.06.2014 00:32 14,5 C 13,3 C 81 % 1021,2 hPa 0,0 l/m 0 min 0 min 0,0 UV-I 0 W/m 10,5 km/h (2 Bft)
17.06.2014 00:34 14,4 C 13,3 C 82 % 1021,2 hPa 0,0 l/m 0 min 0 min 0,0 UV-I 0 W/m 10,5 km/h (2 Bft)
17.06.2014 00:36 14,4 C 12,8 C 82 % 1021,2 hPa 0,0 l/m 0 min 0 min 0,0 UV-I 0 W/m 16,7 km/h (3 Bft)
17.06.2014 00:38 14,3 C 12,8 C 82 % 1021,2 hPa 0,0 l/m 0 min 0 min 0,0 UV-I 0 W/m 10,5 km/h (2 Bft)
17.06.2014 00:40 14,3 C 12,8 C 82 % 1021,2 hPa 0,0 l/m 0 min 0 min 0,0 UV-I 0 W/m 12,6 km/h (3 Bft)
17.06.2014 00:42 14,2 C 12,8 C 83 % 1021,3 hPa 0,0 l/m 0 min 0 min 0,0 UV-I 0 W/m 12,6 km/h (3 Bft)
17.06.2014 00:44 14,2 C 12,8 C 83 % 1021,2 hPa 0,0 l/m 0 min 0 min 0,0 UV-I 0 W/m 16,7 km/h (3 Bft)
17.06.2014 00:46 14,2 C 12,8 C 83 % 1021,3 hPa 0,0 l/m 0 min 0 min 0,0 UV-I 0 W/m 16,7 km/h (3 Bft)
17.06.2014 00:48 14,2 C 12,8 C 83 % 1021,2 hPa 0,0 l/m 0 min 0 min 0,0 UV-I 0 W/m 10,5 km/h (2 Bft)
17.06.2014 00:50 14,2 C 12,8 C 83 % 1021,2 hPa 0,0 l/m 0 min 0 min 0,0 UV-I 0 W/m 12,6 km/h (3 Bft)
17.06.2014 00:52 14,2 C 12,8 C 84 % 1021,2 hPa 0,0 l/m 0 min 0 min 0,0 UV-I 0 W/m 10,5 km/h (2 Bft)
17.06.2014 00:54 14,1 C 12,8 C 84 % 1021,3 hPa 0,0 l/m 0 min 0 min 0,0 UV-I 0 W/m 8,4 km/h (2 Bft)
17.06.2014 00:56 14,0 C 12,8 C 84 % 1021,3 hPa 0,0 l/m 0 min 0 min 0,0 UV-I 0 W/m 18,8 km/h (3 Bft)
17.06.2014 00:58 14,0 C 12,8 C 84 % 1021,4 hPa 0,0 l/m 0 min 0 min 0,0 UV-I 0 W/m 12,6 km/h (3 Bft)
17.06.2014 01:00 13,9 C 12,8 C 84 % 1021,4 hPa 0,0 l/m 0 min 0 min 0,0 UV-I 0 W/m 14,6 km/h (3 Bft)
17.06.2014 01:02 13,9 C 12,8 C 84 % 1021,4 hPa 0,0 l/m 0 min 0 min 0,0 UV-I 0 W/m 18,8 km/h (3 Bft)
17.06.2014 01:04 13,9 C 12,8 C 84 % 1021,4 hPa 0,0 l/m 0 min 0 min 0,0 UV-I 0 W/m 12,6 km/h (3 Bft)
17.06.2014 01:06 13,9 C 12,8 C 85 % 1021,4 hPa 0,0 l/m 0 min 0 min 0,0 UV-I 0 W/m 10,5 km/h (2 Bft)
17.06.2014 01:08 13,9 C 12,8 C 85 % 1021,4 hPa 0,0 l/m 0 min 0 min 0,0 UV-I 0 W/m 12,6 km/h (3 Bft)
17.06.2014 01:10 13,8 C 12,8 C 85 % 1021,4 hPa 0,0 l/m 0 min 0 min 0,0 UV-I 0 W/m 14,6 km/h (3 Bft)
17.06.2014 01:12 13,8 C 12,8 C 85 % 1021,4 hPa 0,0 l/m 0 min 0 min 0,0 UV-I 0 W/m 8,4 km/h (2 Bft)
17.06.2014 01:14 13,8 C 12,8 C 85 % 1021,5 hPa 0,0 l/m 0 min 0 min 0,0 UV-I 0 W/m 10,5 km/h (2 Bft)
17.06.2014 01:16 13,8 C 12,8 C 85 % 1021,4 hPa 0,0 l/m 0 min 0 min 0,0 UV-I 0 W/m 12,6 km/h (3 Bft)
17.06.2014 01:18 13,8 C 12,8 C 85 % 1021,5 hPa 0,0 l/m 0 min 0 min 0,0 UV-I 0 W/m 12,6 km/h (3 Bft)
17.06.2014 01:20 13,8 C 12,8 C 85 % 1021,5 hPa 0,0 l/m 0 min 0 min 0,0 UV-I 0 W/m 10,5 km/h (2 Bft)
17.06.2014 01:22 13,8 C 12,8 C 85 % 1021,6 hPa 0,0 l/m 0 min 0 min 0,0 UV-I 0 W/m 14,6 km/h (3 Bft)
17.06.2014 01:24 13,7 C 12,2 C 85 % 1021,6 hPa 0,0 l/m 0 min 0 min 0,0 UV-I 0 W/m 20,9 km/h (4 Bft)
17.06.2014 01:26 13,7 C 12,2 C 85 % 1021,5 hPa 0,0 l/m 0 min 0 min 0,0 UV-I 0 W/m 12,6 km/h (3 Bft)
17.06.2014 01:28 13,6 C 12,2 C 85 % 1021,5 hPa 0,0 l/m 0 min 0 min 0,0 UV-I 0 W/m 16,7 km/h (3 Bft)
17.06.2014 01:30 13,6 C 12,2 C 85 % 1021,4 hPa 0,0 l/m 0 min 0 min 0,0 UV-I 0 W/m 12,6 km/h (3 Bft)
17.06.2014 01:32 13,5 C 12,2 C 85 % 1021,5 hPa 0,0 l/m 0 min 0 min 0,0 UV-I 0 W/m 18,8 km/h (3 Bft)
17.06.2014 01:34 13,4 C 12,2 C 84 % 1021,5 hPa 0,0 l/m 0 min 0 min 0,0 UV-I 0 W/m 16,7 km/h (3 Bft)
17.06.2014 01:36 13,4 C 12,2 C 84 % 1021,5 hPa 0,0 l/m 0 min 0 min 0,0 UV-I 0 W/m 12,6 km/h (3 Bft)
17.06.2014 01:38 13,3 C 12,2 C 84 % 1021,6 hPa 0,0 l/m 0 min 0 min 0,0 UV-I 0 W/m 12,6 km/h (3 Bft)
17.06.2014 01:40 13,2 C 12,2 C 84 % 1021,6 hPa 0,0 l/m 0 min 0 min 0,0 UV-I 0 W/m 10,5 km/h (2 Bft)
17.06.2014 01:42 13,2 C 11,7 C 84 % 1021,5 hPa 0,0 l/m 0 min 0 min 0,0 UV-I 0 W/m 14,6 km/h (3 Bft)
17.06.2014 01:44 13,1 C 11,7 C 84 % 1021,5 hPa 0,0 l/m 0 min 0 min 0,0 UV-I 0 W/m 12,6 km/h (3 Bft)
17.06.2014 01:46 13,0 C 11,7 C 84 % 1021,5 hPa 0,0 l/m 0 min 0 min 0,0 UV-I 0 W/m 12,6 km/h (3 Bft)
17.06.2014 01:48 12,9 C 11,7 C 84 % 1021,5 hPa 0,0 l/m 0 min 0 min 0,0 UV-I 0 W/m 12,6 km/h (3 Bft)
17.06.2014 01:50 12,9 C 11,7 C 84 % 1021,6 hPa 0,0 l/m 0 min 0 min 0,0 UV-I 0 W/m 12,6 km/h (3 Bft)
17.06.2014 01:52 12,8 C 11,7 C 84 % 1021,6 hPa 0,0 l/m 0 min 0 min 0,0 UV-I 0 W/m 8,4 km/h (2 Bft)
17.06.2014 01:54 12,7 C 11,7 C 85 % 1021,6 hPa 0,0 l/m 0 min 0 min 0,0 UV-I 0 W/m 8,4 km/h (2 Bft)
17.06.2014 01:56 12,6 C 11,1 C 85 % 1021,6 hPa 0,0 l/m 0 min 0 min 0,0 UV-I 0 W/m 8,4 km/h (2 Bft)
17.06.2014 01:58 12,6 C 11,1 C 85 % 1021,6 hPa 0,0 l/m 0 min 0 min 0,0 UV-I 0 W/m 6,3 km/h (2 Bft)
17.06.2014 02:00 12,4 C 11,1 C 85 % 1021,5 hPa 0,0 l/m 0 min 0 min 0,0 UV-I 0 W/m 12,6 km/h (3 Bft)
17.06.2014 02:02 12,4 C 11,1 C 86 % 1021,5 hPa 0,0 l/m 0 min 0 min 0,0 UV-I 0 W/m 8,4 km/h (2 Bft)
17.06.2014 02:04 12,3 C 11,1 C 86 % 1021,6 hPa 0,0 l/m 0 min 0 min 0,0 UV-I 0 W/m 8,4 km/h (2 Bft)
17.06.2014 02:06 12,2 C 11,1 C 86 % 1021,6 hPa 0,0 l/m 0 min 0 min 0,0 UV-I 0 W/m 10,5 km/h (2 Bft)
17.06.2014 02:08 12,2 C 10,6 C 86 % 1021,6 hPa 0,0 l/m 0 min 0 min 0,0 UV-I 0 W/m 8,4 km/h (2 Bft)
17.06.2014 02:10 12,2 C 10,6 C 86 % 1021,6 hPa 0,0 l/m 0 min 0 min 0,0 UV-I 0 W/m 8,4 km/h (2 Bft)
17.06.2014 02:12 12,1 C 10,6 C 87 % 1021,6 hPa 0,0 l/m 0 min 0 min 0,0 UV-I 0 W/m 8,4 km/h (2 Bft)
17.06.2014 02:14 12,1 C 10,6 C 87 % 1021,7 hPa 0,0 l/m 0 min 0 min 0,0 UV-I 0 W/m 12,6 km/h (3 Bft)
17.06.2014 02:16 12,1 C 10,6 C 87 % 1021,7 hPa 0,0 l/m 0 min 0 min 0,0 UV-I 0 W/m 10,5 km/h (2 Bft)
17.06.2014 02:18 12,0 C 10,6 C 87 % 1021,7 hPa 0,0 l/m 0 min 0 min 0,0 UV-I 0 W/m 8,4 km/h (2 Bft)
17.06.2014 02:20 12,0 C 10,6 C 87 % 1021,7 hPa 0,0 l/m 0 min 0 min 0,0 UV-I 0 W/m 8,4 km/h (2 Bft)
17.06.2014 02:22 12,0 C 10,6 C 87 % 1021,7 hPa 0,0 l/m 0 min 0 min 0,0 UV-I 0 W/m 8,4 km/h (2 Bft)
17.06.2014 02:24 11,9 C 10,6 C 86 % 1021,7 hPa 0,0 l/m 0 min 0 min 0,0 UV-I 0 W/m 8,4 km/h (2 Bft)
17.06.2014 02:26 11,9 C 10,6 C 86 % 1021,7 hPa 0,0 l/m 0 min 0 min 0,0 UV-I 0 W/m 8,4 km/h (2 Bft)
17.06.2014 02:28 11,8 C 10,6 C 86 % 1021,7 hPa 0,0 l/m 0 min 0 min 0,0 UV-I 0 W/m 8,4 km/h (2 Bft)
17.06.2014 02:30 11,8 C 10,6 C 86 % 1021,7 hPa 0,0 l/m 0 min 0 min 0,0 UV-I 0 W/m 12,6 km/h (3 Bft)
17.06.2014 02:32 11,8 C 10,6 C 87 % 1021,7 hPa 0,0 l/m 0 min 0 min 0,0 UV-I 0 W/m 6,3 km/h (2 Bft)
17.06.2014 02:34 11,7 C 10,6 C 87 % 1021,7 hPa 0,0 l/m 0 min 0 min 0,0 UV-I 0 W/m 10,5 km/h (2 Bft)
17.06.2014 02:36 11,7 C 10,6 C 87 % 1021,7 hPa 0,0 l/m 0 min 0 min 0,0 UV-I 0 W/m 2,1 km/h (1 Bft)
17.06.2014 02:38 11,7 C 10,6 C 87 % 1021,7 hPa 0,0 l/m 0 min 0 min 0,0 UV-I 0 W/m 2,1 km/h (1 Bft)
17.06.2014 02:40 11,6 C 10,0 C 87 % 1021,7 hPa 0,0 l/m 0 min 0 min 0,0 UV-I 0 W/m 6,3 km/h (2 Bft)
17.06.2014 02:42 11,5 C 10,0 C 87 % 1021,7 hPa 0,0 l/m 0 min 0 min 0,0 UV-I 0 W/m 8,4 km/h (2 Bft)
17.06.2014 02:44 11,4 C 10,0 C 87 % 1021,7 hPa 0,0 l/m 0 min 0 min 0,0 UV-I 0 W/m 0,0 km/h (0 Bft)
17.06.2014 02:46 11,4 C 10,0 C 87 % 1021,7 hPa 0,0 l/m 0 min 0 min 0,0 UV-I 0 W/m 0,0 km/h (0 Bft)
17.06.2014 02:48 11,3 C 10,0 C 87 % 1021,7 hPa 0,0 l/m 0 min 0 min 0,0 UV-I 0 W/m 4,2 km/h (1 Bft)
17.06.2014 02:50 11,3 C 10,0 C 87 % 1021,7 hPa 0,0 l/m 0 min 0 min 0,0 UV-I 0 W/m 0,0 km/h (0 Bft)
17.06.2014 02:52 11,3 C 10,0 C 87 % 1021,7 hPa 0,0 l/m 0 min 0 min 0,0 UV-I 0 W/m 0,0 km/h (0 Bft)
17.06.2014 02:54 11,2 C 10,0 C 87 % 1021,6 hPa 0,0 l/m 0 min 0 min 0,0 UV-I 0 W/m 2,1 km/h (1 Bft)
17.06.2014 02:56 11,1 C 9,4 C 87 % 1021,7 hPa 0,0 l/m 0 min 0 min 0,0 UV-I 0 W/m 0,0 km/h (0 Bft)
17.06.2014 02:58 11,1 C 9,4 C 88 % 1021,6 hPa 0,0 l/m 0 min 0 min 0,0 UV-I 0 W/m 0,0 km/h (0 Bft)
17.06.2014 03:00 11,1 C 9,4 C 88 % 1021,6 hPa 0,0 l/m 0 min 0 min 0,0 UV-I 0 W/m 0,0 km/h (0 Bft)
17.06.2014 03:02 11,1 C 9,4 C 88 % 1021,6 hPa 0,0 l/m 0 min 0 min 0,0 UV-I 0 W/m 0,0 km/h (0 Bft)
17.06.2014 03:04 11,0 C 9,4 C 88 % 1021,6 hPa 0,0 l/m 0 min 0 min 0,0 UV-I 0 W/m 0,0 km/h (0 Bft)
17.06.2014 03:06 11,0 C 9,4 C 88 % 1021,6 hPa 0,0 l/m 0 min 0 min 0,0 UV-I 0 W/m 0,0 km/h (0 Bft)
17.06.2014 03:08 10,9 C 9,4 C 88 % 1021,7 hPa 0,0 l/m 0 min 0 min 0,0 UV-I 0 W/m 0,0 km/h (0 Bft)
17.06.2014 03:10 10,9 C 9,4 C 88 % 1021,7 hPa 0,0 l/m 0 min 0 min 0,0 UV-I 0 W/m 0,0 km/h (0 Bft)
17.06.2014 03:12 10,9 C 9,4 C 89 % 1021,6 hPa 0,0 l/m 0 min 0 min 0,0 UV-I 0 W/m 6,3 km/h (2 Bft)
17.06.2014 03:14 11,0 C 9,4 C 89 % 1021,6 hPa 0,0 l/m 0 min 0 min 0,0 UV-I 0 W/m 4,2 km/h (1 Bft)
17.06.2014 03:16 11,0 C 9,4 C 89 % 1021,6 hPa 0,0 l/m 0 min 0 min 0,0 UV-I 0 W/m 4,2 km/h (1 Bft)
17.06.2014 03:18 11,1 C 10,0 C 89 % 1021,6 hPa 0,0 l/m 0 min 0 min 0,0 UV-I 0 W/m 4,2 km/h (1 Bft)
17.06.2014 03:20 11,1 C 10,0 C 88 % 1021,6 hPa 0,0 l/m 0 min 0 min 0,0 UV-I 0 W/m 4,2 km/h (1 Bft)
17.06.2014 03:22 11,1 C 10,0 C 89 % 1021,6 hPa 0,0 l/m 0 min 0 min 0,0 UV-I 0 W/m 2,1 km/h (1 Bft)
17.06.2014 03:24 11,1 C 10,0 C 89 % 1021,6 hPa 0,0 l/m 0 min 0 min 0,0 UV-I 0 W/m 0,0 km/h (0 Bft)
17.06.2014 03:26 11,2 C 10,0 C 89 % 1021,7 hPa 0,0 l/m 0 min 0 min 0,0 UV-I 0 W/m 0,0 km/h (0 Bft)
17.06.2014 03:28 11,2 C 10,0 C 89 % 1021,6 hPa 0,0 l/m 0 min 0 min 0,0 UV-I 0 W/m 0,0 km/h (0 Bft)
17.06.2014 03:30 11,1 C 10,0 C 89 % 1021,6 hPa 0,0 l/m 0 min 0 min 0,0 UV-I 0 W/m 0,0 km/h (0 Bft)
17.06.2014 03:32 11,1 C 10,0 C 89 % 1021,6 hPa 0,0 l/m 0 min 0 min 0,0 UV-I 0 W/m 0,0 km/h (0 Bft)
17.06.2014 03:34 11,1 C 10,0 C 89 % 1021,6 hPa 0,0 l/m 0 min 0 min 0,0 UV-I 0 W/m 0,0 km/h (0 Bft)
17.06.2014 03:36 11,1 C 10,0 C 88 % 1021,6 hPa 0,0 l/m 0 min 0 min 0,0 UV-I 0 W/m 0,0 km/h (0 Bft)
17.06.2014 03:38 11,1 C 10,0 C 89 % 1021,6 hPa 0,0 l/m 0 min 0 min 0,0 UV-I 0 W/m 0,0 km/h (0 Bft)
17.06.2014 03:40 11,1 C 10,0 C 89 % 1021,6 hPa 0,0 l/m 0 min 0 min 0,0 UV-I 0 W/m 0,0 km/h (0 Bft)
17.06.2014 03:42 11,1 C 10,0 C 89 % 1021,5 hPa 0,0 l/m 0 min 0 min 0,0 UV-I 0 W/m 0,0 km/h (0 Bft)
17.06.2014 03:44 11,1 C 10,0 C 89 % 1021,6 hPa 0,0 l/m 0 min 0 min 0,0 UV-I 0 W/m 0,0 km/h (0 Bft)
17.06.2014 03:46 11,1 C 10,0 C 89 % 1021,4 hPa 0,0 l/m 0 min 0 min 0,0 UV-I 0 W/m 0,0 km/h (0 Bft)
17.06.2014 03:48 11,1 C 10,0 C 89 % 1021,5 hPa 0,0 l/m 0 min 0 min 0,0 UV-I 0 W/m 0,0 km/h (0 Bft)
17.06.2014 03:50 11,1 C 10,0 C 89 % 1021,5 hPa 0,0 l/m 0 min 0 min 0,0 UV-I 0 W/m 0,0 km/h (0 Bft)
17.06.2014 03:52 11,1 C 10,0 C 89 % 1021,4 hPa 0,0 l/m 0 min 0 min 0,0 UV-I 0 W/m 0,0 km/h (0 Bft)
17.06.2014 03:54 11,1 C 9,4 C 89 % 1021,4 hPa 0,0 l/m 0 min 0 min 0,0 UV-I 0 W/m 0,0 km/h (0 Bft)
17.06.2014 03:56 11,0 C 9,4 C 89 % 1021,4 hPa 0,0 l/m 0 min 0 min 0,0 UV-I 0 W/m 0,0 km/h (0 Bft)
17.06.2014 03:58 11,0 C 9,4 C 89 % 1021,4 hPa 0,0 l/m 0 min 0 min 0,0 UV-I 0 W/m 0,0 km/h (0 Bft)
17.06.2014 04:00 11,0 C 9,4 C 89 % 1021,4 hPa 0,0 l/m 0 min 0 min 0,0 UV-I 0 W/m 0,0 km/h (0 Bft)
17.06.2014 04:02 10,9 C 9,4 C 89 % 1021,4 hPa 0,0 l/m 0 min 0 min 0,0 UV-I 0 W/m 0,0 km/h (0 Bft)
17.06.2014 04:04 10,9 C 9,4 C 89 % 1021,4 hPa 0,0 l/m 0 min 0 min 0,0 UV-I 0 W/m 2,1 km/h (1 Bft)
17.06.2014 04:06 10,8 C 9,4 C 89 % 1021,3 hPa 0,0 l/m 0 min 0 min 0,0 UV-I 0 W/m 0,0 km/h (0 Bft)
17.06.2014 04:08 10,8 C 9,4 C 89 % 1021,3 hPa 0,0 l/m 0 min 0 min 0,0 UV-I 0 W/m 0,0 km/h (0 Bft)
17.06.2014 04:10 10,8 C 9,4 C 90 % 1021,4 hPa 0,0 l/m 0 min 0 min 0,0 UV-I 0 W/m 0,0 km/h (0 Bft)
17.06.2014 04:12 10,7 C 8,9 C 90 % 1021,4 hPa 0,0 l/m 0 min 0 min 0,0 UV-I 0 W/m 0,0 km/h (0 Bft)
17.06.2014 04:14 10,7 C 8,9 C 90 % 1021,4 hPa 0,0 l/m 0 min 0 min 0,0 UV-I 0 W/m 0,0 km/h (0 Bft)
17.06.2014 04:16 10,6 C 8,9 C 90 % 1021,3 hPa 0,0 l/m 0 min 0 min 0,0 UV-I 0 W/m 0,0 km/h (0 Bft)
17.06.2014 04:18 10,6 C 8,9 C 90 % 1021,3 hPa 0,0 l/m 0 min 0 min 0,0 UV-I 0 W/m 0,0 km/h (0 Bft)
17.06.2014 04:20 10,6 C 8,9 C 90 % 1021,4 hPa 0,0 l/m 0 min 0 min 0,0 UV-I 0 W/m 0,0 km/h (0 Bft)
17.06.2014 04:22 10,5 C 8,9 C 90 % 1021,3 hPa 0,0 l/m 0 min 0 min 0,0 UV-I 0 W/m 0,0 km/h (0 Bft)
17.06.2014 04:24 10,5 C 8,9 C 90 % 1021,3 hPa 0,0 l/m 0 min 0 min 0,0 UV-I 0 W/m 0,0 km/h (0 Bft)
17.06.2014 04:26 10,4 C 8,9 C 90 % 1021,3 hPa 0,0 l/m 0 min 0 min 0,0 UV-I 0 W/m 0,0 km/h (0 Bft)
17.06.2014 04:28 10,4 C 8,9 C 90 % 1021,3 hPa 0,0 l/m 0 min 0 min 0,0 UV-I 0 W/m 0,0 km/h (0 Bft)
17.06.2014 04:30 10,3 C 8,9 C 90 % 1021,3 hPa 0,0 l/m 0 min 0 min 0,0 UV-I 0 W/m 0,0 km/h (0 Bft)
17.06.2014 04:32 10,3 C 8,9 C 91 % 1021,4 hPa 0,0 l/m 0 min 0 min 0,0 UV-I 0 W/m 0,0 km/h (0 Bft)
17.06.2014 04:34 10,3 C 8,9 C 91 % 1021,4 hPa 0,0 l/m 0 min 0 min 0,0 UV-I 0 W/m 0,0 km/h (0 Bft)
17.06.2014 04:36 10,3 C 8,9 C 91 % 1021,4 hPa 0,0 l/m 0 min 0 min 0,0 UV-I 0 W/m 0,0 km/h (0 Bft)
17.06.2014 04:38 10,3 C 8,9 C 91 % 1021,4 hPa 0,0 l/m 0 min 0 min 0,0 UV-I 0 W/m 0,0 km/h (0 Bft)
17.06.2014 04:40 10,3 C 8,9 C 91 % 1021,3 hPa 0,0 l/m 0 min 0 min 0,0 UV-I 0 W/m 0,0 km/h (0 Bft)
17.06.2014 04:42 10,3 C 8,9 C 91 % 1021,4 hPa 0,0 l/m 0 min 0 min 0,0 UV-I 0 W/m 0,0 km/h (0 Bft)
17.06.2014 04:44 10,3 C 8,9 C 91 % 1021,4 hPa 0,0 l/m 0 min 0 min 0,0 UV-I 0 W/m 0,0 km/h (0 Bft)
17.06.2014 04:46 10,4 C 8,9 C 91 % 1021,4 hPa 0,0 l/m 0 min 0 min 0,0 UV-I 0 W/m 0,0 km/h (0 Bft)
17.06.2014 04:48 10,4 C 8,9 C 91 % 1021,4 hPa 0,0 l/m 0 min 0 min 0,0 UV-I 0 W/m 0,0 km/h (0 Bft)
17.06.2014 04:50 10,4 C 8,9 C 91 % 1021,4 hPa 0,0 l/m 0 min 0 min 0,0 UV-I 0 W/m 0,0 km/h (0 Bft)
17.06.2014 04:52 10,4 C 8,9 C 91 % 1021,5 hPa 0,0 l/m 0 min 0 min 0,0 UV-I 0 W/m 0,0 km/h (0 Bft)
17.06.2014 04:54 10,3 C 8,9 C 91 % 1021,4 hPa 0,0 l/m 0 min 0 min 0,0 UV-I 0 W/m 0,0 km/h (0 Bft)
17.06.2014 04:56 10,3 C 8,9 C 91 % 1021,5 hPa 0,0 l/m 0 min 0 min 0,0 UV-I 0 W/m 0,0 km/h (0 Bft)
17.06.2014 04:58 10,3 C 8,9 C 91 % 1021,5 hPa 0,0 l/m 0 min 0 min 0,0 UV-I 0 W/m 0,0 km/h (0 Bft)
17.06.2014 05:00 10,3 C 8,9 C 91 % 1021,5 hPa 0,0 l/m 0 min 0 min 0,0 UV-I 0 W/m 0,0 km/h (0 Bft)
17.06.2014 05:02 10,3 C 8,9 C 91 % 1021,5 hPa 0,0 l/m 0 min 0 min 0,0 UV-I 0 W/m 0,0 km/h (0 Bft)
17.06.2014 05:04 10,3 C 8,9 C 91 % 1021,3 hPa 0,0 l/m 0 min 0 min 0,0 UV-I 0 W/m 0,0 km/h (0 Bft)
17.06.2014 05:06 10,4 C 8,9 C 91 % 1021,4 hPa 0,0 l/m 0 min 0 min 0,0 UV-I 0 W/m 0,0 km/h (0 Bft)
17.06.2014 05:08 10,4 C 9,4 C 91 % 1021,3 hPa 0,0 l/m 0 min 0 min 0,0 UV-I 0 W/m 0,0 km/h (0 Bft)
17.06.2014 05:10 10,5 C 9,4 C 92 % 1021,3 hPa 0,0 l/m 0 min 0 min 0,0 UV-I 0 W/m 0,0 km/h (0 Bft)
17.06.2014 05:12 10,6 C 9,4 C 92 % 1021,3 hPa 0,0 l/m 0 min 0 min 0,0 UV-I 0 W/m 0,0 km/h (0 Bft)
17.06.2014 05:14 10,6 C 9,4 C 92 % 1021,4 hPa 0,0 l/m 0 min 0 min 0,0 UV-I 0 W/m 0,0 km/h (0 Bft)
17.06.2014 05:16 10,7 C 10,0 C 92 % 1021,4 hPa 0,0 l/m 0 min 0 min 0,0 UV-I 0 W/m 0,0 km/h (0 Bft)
17.06.2014 05:18 10,7 C 10,0 C 91 % 1021,4 hPa 0,0 l/m 0 min 0 min 0,0 UV-I 0 W/m 0,0 km/h (0 Bft)
17.06.2014 05:20 10,8 C 10,0 C 91 % 1021,4 hPa 0,0 l/m 0 min 0 min 0,0 UV-I 0 W/m 0,0 km/h (0 Bft)
17.06.2014 05:22 10,8 C 10,0 C 91 % 1021,4 hPa 0,0 l/m 0 min 0 min 0,0 UV-I 0 W/m 0,0 km/h (0 Bft)
17.06.2014 05:24 10,9 C 10,0 C 91 % 1021,3 hPa 0,0 l/m 0 min 0 min 0,0 UV-I 0 W/m 0,0 km/h (0 Bft)
17.06.2014 05:26 10,9 C 10,0 C 91 % 1021,3 hPa 0,0 l/m 0 min 0 min 0,0 UV-I 0 W/m 2,1 km/h (1 Bft)
17.06.2014 05:28 11,0 C 10,0 C 91 % 1021,3 hPa 0,0 l/m 0 min 0 min 0,0 UV-I 0 W/m 0,0 km/h (0 Bft)
17.06.2014 05:30 11,1 C 10,0 C 91 % 1021,3 hPa 0,0 l/m 0 min 0 min 0,0 UV-I 6 W/m 0,0 km/h (0 Bft)
17.06.2014 05:32 11,2 C 10,6 C 91 % 1021,3 hPa 0,0 l/m 0 min 0 min 0,0 UV-I 6 W/m 0,0 km/h (0 Bft)
17.06.2014 05:34 11,3 C 10,6 C 91 % 1021,3 hPa 0,0 l/m 0 min 0 min 0,0 UV-I 6 W/m 0,0 km/h (0 Bft)
17.06.2014 05:36 11,3 C 10,6 C 91 % 1021,3 hPa 0,0 l/m 0 min 0 min 0,0 UV-I 6 W/m 2,1 km/h (1 Bft)
17.06.2014 05:38 11,3 C 10,6 C 91 % 1021,3 hPa 0,0 l/m 0 min 0 min 0,0 UV-I 6 W/m 0,0 km/h (0 Bft)
17.06.2014 05:40 11,3 C 10,6 C 90 % 1021,5 hPa 0,0 l/m 0 min 0 min 0,0 UV-I 6 W/m 0,0 km/h (0 Bft)
17.06.2014 05:42 11,4 C 10,6 C 90 % 1021,5 hPa 0,0 l/m 0 min 0 min 0,0 UV-I 6 W/m 2,1 km/h (1 Bft)
17.06.2014 05:44 11,4 C 10,6 C 90 % 1021,4 hPa 0,0 l/m 0 min 0 min 0,0 UV-I 8 W/m 0,0 km/h (0 Bft)
17.06.2014 05:46 11,5 C 10,6 C 90 % 1021,5 hPa 0,0 l/m 0 min 0 min 0,0 UV-I 8 W/m 0,0 km/h (0 Bft)
17.06.2014 05:48 11,5 C 10,6 C 90 % 1021,5 hPa 0,0 l/m 0 min 0 min 0,0 UV-I 8 W/m 0,0 km/h (0 Bft)
17.06.2014 05:50 11,6 C 10,6 C 90 % 1021,5 hPa 0,0 l/m 0 min 0 min 0,0 UV-I 10 W/m 0,0 km/h (0 Bft)
17.06.2014 05:52 11,6 C 10,6 C 90 % 1021,5 hPa 0,0 l/m 0 min 0 min 0,0 UV-I 10 W/m 0,0 km/h (0 Bft)
17.06.2014 05:54 11,6 C 10,6 C 90 % 1021,5 hPa 0,0 l/m 0 min 0 min 0,0 UV-I 13 W/m 0,0 km/h (0 Bft)
17.06.2014 05:56 11,7 C 10,6 C 90 % 1021,5 hPa 0,0 l/m 0 min 0 min 0,0 UV-I 13 W/m 0,0 km/h (0 Bft)
17.06.2014 05:58 11,7 C 10,6 C 90 % 1021,5 hPa 0,0 l/m 0 min 0 min 0,0 UV-I 13 W/m 0,0 km/h (0 Bft)
17.06.2014 06:00 11,7 C 11,1 C 89 % 1021,5 hPa 0,0 l/m 0 min 0 min 0,0 UV-I 14 W/m 0,0 km/h (0 Bft)
17.06.2014 06:02 11,7 C 11,1 C 92 % 1021,5 hPa 0,0 l/m 0 min 0 min 0,0 UV-I 14 W/m 0,0 km/h (0 Bft)
17.06.2014 06:06 11,8 C 11,1 C 89 % 1021,5 hPa 0,0 l/m 0 min 0 min 0,0 UV-I 16 W/m 0,0 km/h (0 Bft)
17.06.2014 06:08 11,8 C 11,1 C 90 % 1021,5 hPa 0,0 l/m 0 min 0 min 0,0 UV-I 18 W/m 0,0 km/h (0 Bft)
17.06.2014 06:10 11,8 C 11,1 C 90 % 1021,5 hPa 0,0 l/m 0 min 0 min 0,0 UV-I 21 W/m 0,0 km/h (0 Bft)
17.06.2014 06:12 11,8 C 11,1 C 90 % 1021,5 hPa 0,0 l/m 0 min 0 min 0,0 UV-I 22 W/m 2,1 km/h (1 Bft)
17.06.2014 06:14 11,8 C 11,1 C 90 % 1021,4 hPa 0,0 l/m 0 min 0 min 0,0 UV-I 24 W/m 4,2 km/h (1 Bft)
17.06.2014 06:16 11,9 C 11,1 C 90 % 1021,5 hPa 0,0 l/m 0 min 0 min 0,0 UV-I 26 W/m 0,0 km/h (0 Bft)
17.06.2014 06:18 11,9 C 11,1 C 90 % 1021,5 hPa 0,0 l/m 0 min 0 min 0,0 UV-I 29 W/m 0,0 km/h (0 Bft)
17.06.2014 06:20 11,9 C 11,1 C 90 % 1021,5 hPa 0,0 l/m 0 min 0 min 0,0 UV-I 30 W/m 0,0 km/h (0 Bft)
17.06.2014 06:22 11,9 C 11,1 C 90 % 1021,5 hPa 0,0 l/m 0 min 0 min 0,0 UV-I 30 W/m 0,0 km/h (0 Bft)
17.06.2014 06:24 11,9 C 11,1 C 90 % 1021,5 hPa 0,0 l/m 0 min 0 min 0,0 UV-I 34 W/m 0,0 km/h (0 Bft)
17.06.2014 06:26 12,0 C 11,7 C 90 % 1021,5 hPa 0,0 l/m 0 min 0 min 0,0 UV-I 34 W/m 0,0 km/h (0 Bft)
17.06.2014 06:28 12,0 C 11,7 C 91 % 1021,5 hPa 0,0 l/m 0 min 0 min 0,0 UV-I 37 W/m 0,0 km/h (0 Bft)
17.06.2014 06:30 12,1 C 11,7 C 91 % 1021,6 hPa 0,0 l/m 0 min 0 min 0,0 UV-I 38 W/m 0,0 km/h (0 Bft)
17.06.2014 06:32 12,1 C 11,7 C 91 % 1021,6 hPa 0,0 l/m 0 min 0 min 0,0 UV-I 38 W/m 0,0 km/h (0 Bft)
17.06.2014 06:34 12,1 C 11,7 C 91 % 1021,5 hPa 0,0 l/m 0 min 0 min 0,0 UV-I 40 W/m 0,0 km/h (0 Bft)
17.06.2014 06:36 12,1 C 11,7 C 91 % 1021,5 hPa 0,0 l/m 0 min 0 min 0,0 UV-I 38 W/m 2,1 km/h (1 Bft)
17.06.2014 06:38 12,1 C 11,7 C 90 % 1021,5 hPa 0,0 l/m 0 min 0 min 0,0 UV-I 38 W/m 0,0 km/h (0 Bft)
17.06.2014 06:40 12,1 C 11,7 C 90 % 1021,6 hPa 0,0 l/m 0 min 0 min 0,0 UV-I 38 W/m 0,0 km/h (0 Bft)
17.06.2014 06:42 12,2 C 11,7 C 90 % 1021,6 hPa 0,0 l/m 0 min 0 min 0,0 UV-I 40 W/m 0,0 km/h (0 Bft)
17.06.2014 06:44 12,2 C 11,7 C 90 % 1021,6 hPa 0,0 l/m 0 min 0 min 0,0 UV-I 40 W/m 0,0 km/h (0 Bft)
17.06.2014 06:46 12,2 C 11,7 C 90 % 1021,6 hPa 0,0 l/m 0 min 0 min 0,0 UV-I 43 W/m 0,0 km/h (0 Bft)
17.06.2014 06:48 12,2 C 11,7 C 90 % 1021,6 hPa 0,0 l/m 0 min 0 min 0,0 UV-I 45 W/m 0,0 km/h (0 Bft)
17.06.2014 06:50 12,3 C 11,7 C 90 % 1021,6 hPa 0,0 l/m 0 min 0 min 0,0 UV-I 46 W/m 0,0 km/h (0 Bft)
17.06.2014 06:52 12,3 C 11,7 C 90 % 1021,5 hPa 0,0 l/m 0 min 0 min 0,0 UV-I 53 W/m 2,1 km/h (1 Bft)
17.06.2014 06:54 12,3 C 12,2 C 90 % 1021,6 hPa 0,0 l/m 0 min 0 min 0,0 UV-I 59 W/m 0,0 km/h (0 Bft)
17.06.2014 06:56 12,4 C 12,2 C 90 % 1021,6 hPa 0,0 l/m 0 min 0 min 0,0 UV-I 61 W/m 0,0 km/h (0 Bft)
17.06.2014 06:58 12,4 C 12,2 C 90 % 1021,6 hPa 0,0 l/m 0 min 0 min 0,0 UV-I 62 W/m 0,0 km/h (0 Bft)
17.06.2014 07:00 12,4 C 12,2 C 89 % 1021,6 hPa 0,0 l/m 0 min 0 min 0,0 UV-I 64 W/m 0,0 km/h (0 Bft)
17.06.2014 07:02 12,5 C 12,2 C 89 % 1021,7 hPa 0,0 l/m 0 min 0 min 0,0 UV-I 64 W/m 0,0 km/h (0 Bft)
17.06.2014 07:04 12,5 C 12,2 C 89 % 1021,7 hPa 0,0 l/m 0 min 0 min 0,0 UV-I 64 W/m 6,3 km/h (2 Bft)
17.06.2014 07:06 12,6 C 12,2 C 89 % 1021,7 hPa 0,0 l/m 0 min 0 min 0,0 UV-I 69 W/m 0,0 km/h (0 Bft)
17.06.2014 07:08 12,6 C 12,2 C 89 % 1021,7 hPa 0,0 l/m 0 min 0 min 0,0 UV-I 69 W/m 6,3 km/h (2 Bft)
17.06.2014 07:10 12,6 C 12,2 C 89 % 1021,7 hPa 0,0 l/m 0 min 0 min 0,0 UV-I 71 W/m 4,2 km/h (1 Bft)
17.06.2014 07:12 12,7 C 12,2 C 89 % 1021,8 hPa 0,0 l/m 0 min 0 min 0,0 UV-I 72 W/m 4,2 km/h (1 Bft)
17.06.2014 07:14 12,8 C 12,2 C 89 % 1021,8 hPa 0,0 l/m 0 min 0 min 0,0 UV-I 72 W/m 0,0 km/h (0 Bft)
17.06.2014 07:16 12,8 C 12,2 C 89 % 1021,8 hPa 0,0 l/m 0 min 0 min 0,0 UV-I 79 W/m 8,4 km/h (2 Bft)
17.06.2014 07:18 12,9 C 12,2 C 89 % 1021,8 hPa 0,0 l/m 0 min 0 min 0,0 UV-I 87 W/m 8,4 km/h (2 Bft)
17.06.2014 07:20 12,9 C 12,2 C 89 % 1021,8 hPa 0,0 l/m 0 min 0 min 0,0 UV-I 93 W/m 8,4 km/h (2 Bft)
17.06.2014 07:22 12,9 C 12,8 C 89 % 1021,9 hPa 0,0 l/m 0 min 0 min 0,0 UV-I 104 W/m 8,4 km/h (2 Bft)
17.06.2014 07:24 12,9 C 12,8 C 89 % 1021,9 hPa 0,0 l/m 0 min 0 min 0,0 UV-I 101 W/m 6,3 km/h (2 Bft)
17.06.2014 07:26 13,0 C 12,8 C 89 % 1021,9 hPa 0,0 l/m 0 min 0 min 0,0 UV-I 105 W/m 4,2 km/h (1 Bft)
17.06.2014 07:28 13,0 C 12,8 C 89 % 1021,9 hPa 0,0 l/m 0 min 0 min 0,0 UV-I 109 W/m 10,5 km/h (2 Bft)
17.06.2014 07:30 13,0 C 12,8 C 88 % 1022,0 hPa 0,0 l/m 0 min 0 min 0,0 UV-I 113 W/m 8,4 km/h (2 Bft)
17.06.2014 07:32 13,0 C 12,8 C 88 % 1022,0 hPa 0,0 l/m 0 min 0 min 0,0 UV-I 113 W/m 8,4 km/h (2 Bft)
17.06.2014 07:34 13,1 C 12,8 C 88 % 1022,0 hPa 0,0 l/m 0 min 0 min 0,0 UV-I 113 W/m 8,4 km/h (2 Bft)
17.06.2014 07:36 13,1 C 12,8 C 88 % 1022,0 hPa 0,0 l/m 0 min 0 min 0,0 UV-I 117 W/m 12,6 km/h (3 Bft)
17.06.2014 07:38 13,2 C 12,8 C 88 % 1022,0 hPa 0,0 l/m 0 min 0 min 0,0 UV-I 117 W/m 4,2 km/h (1 Bft)
17.06.2014 07:40 13,2 C 12,8 C 89 % 1022,0 hPa 0,0 l/m 0 min 0 min 0,0 UV-I 115 W/m 8,4 km/h (2 Bft)
17.06.2014 07:42 13,2 C 12,8 C 88 % 1022,0 hPa 0,0 l/m 0 min 0 min 0,0 UV-I 120 W/m 10,5 km/h (2 Bft)
17.06.2014 07:44 13,2 C 12,8 C 88 % 1022,0 hPa 0,0 l/m 0 min 0 min 0,0 UV-I 121 W/m 2,1 km/h (1 Bft)
17.06.2014 07:46 13,3 C 13,3 C 88 % 1022,0 hPa 0,0 l/m 0 min 0 min 0,0 UV-I 125 W/m 8,4 km/h (2 Bft)
17.06.2014 07:48 13,3 C 13,3 C 88 % 1022,0 hPa 0,0 l/m 0 min 0 min 0,0 UV-I 131 W/m 6,3 km/h (2 Bft)
17.06.2014 07:50 13,4 C 13,3 C 88 % 1022,1 hPa 0,0 l/m 0 min 0 min 0,0 UV-I 131 W/m 10,5 km/h (2 Bft)
17.06.2014 07:52 13,4 C 13,3 C 88 % 1022,1 hPa 0,0 l/m 0 min 0 min 0,0 UV-I 131 W/m 6,3 km/h (2 Bft)
17.06.2014 07:54 13,4 C 13,3 C 88 % 1022,1 hPa 0,0 l/m 0 min 0 min 0,0 UV-I 131 W/m 0,0 km/h (0 Bft)
17.06.2014 07:56 13,5 C 13,3 C 88 % 1022,1 hPa 0,0 l/m 0 min 0 min 0,0 UV-I 138 W/m 6,3 km/h (2 Bft)
17.06.2014 07:58 13,6 C 13,3 C 88 % 1022,1 hPa 0,0 l/m 0 min 0 min 0,0 UV-I 138 W/m 8,4 km/h (2 Bft)
17.06.2014 08:00 13,6 C 13,3 C 88 % 1022,1 hPa 0,0 l/m 0 min 0 min 0,0 UV-I 131 W/m 10,5 km/h (2 Bft)
17.06.2014 08:02 13,6 C 13,3 C 88 % 1022,1 hPa 0,0 l/m 0 min 0 min 0,0 UV-I 128 W/m 8,4 km/h (2 Bft)
17.06.2014 08:04 13,6 C 13,3 C 87 % 1022,2 hPa 0,0 l/m 0 min 0 min 0,0 UV-I 131 W/m 8,4 km/h (2 Bft)
17.06.2014 08:06 13,6 C 13,3 C 88 % 1022,2 hPa 0,0 l/m 0 min 0 min 0,0 UV-I 131 W/m 8,4 km/h (2 Bft)
17.06.2014 08:08 13,6 C 13,3 C 88 % 1022,3 hPa 0,0 l/m 0 min 0 min 0,0 UV-I 131 W/m 10,5 km/h (2 Bft)
17.06.2014 08:10 13,6 C 13,3 C 88 % 1022,2 hPa 0,0 l/m 0 min 0 min 0,0 UV-I 130 W/m 8,4 km/h (2 Bft)
17.06.2014 08:12 13,7 C 13,3 C 88 % 1022,2 hPa 0,0 l/m 0 min 0 min 0,0 UV-I 133 W/m 6,3 km/h (2 Bft)
17.06.2014 08:14 13,7 C 13,3 C 88 % 1022,2 hPa 0,0 l/m 0 min 0 min 0,0 UV-I 136 W/m 8,4 km/h (2 Bft)
17.06.2014 08:16 13,8 C 13,9 C 87 % 1022,3 hPa 0,0 l/m 0 min 0 min 0,0 UV-I 139 W/m 8,4 km/h (2 Bft)
17.06.2014 08:18 13,8 C 13,9 C 87 % 1022,2 hPa 0,0 l/m 0 min 0 min 0,0 UV-I 147 W/m 12,6 km/h (3 Bft)
17.06.2014 08:20 13,8 C 13,9 C 87 % 1022,2 hPa 0,0 l/m 0 min 0 min 0,0 UV-I 162 W/m 6,3 km/h (2 Bft)
17.06.2014 08:22 13,9 C 13,9 C 88 % 1022,2 hPa 0,0 l/m 0 min 0 min 0,0 UV-I 184 W/m 0,0 km/h (0 Bft)
17.06.2014 08:24 14,0 C 13,9 C 88 % 1022,2 hPa 0,0 l/m 0 min 0 min 0,0 UV-I 190 W/m 0,0 km/h (0 Bft)
17.06.2014 08:26 14,2 C 13,9 C 88 % 1022,2 hPa 0,0 l/m 0 min 0 min 0,0 UV-I 192 W/m 8,4 km/h (2 Bft)
17.06.2014 08:28 14,2 C 13,9 C 87 % 1022,3 hPa 0,0 l/m 0 min 0 min 0,0 UV-I 190 W/m 12,6 km/h (3 Bft)
17.06.2014 08:30 14,2 C 14,4 C 87 % 1022,3 hPa 0,0 l/m 0 min 0 min 0,0 UV-I 194 W/m 8,4 km/h (2 Bft)
17.06.2014 08:32 14,2 C 14,4 C 87 % 1022,3 hPa 0,0 l/m 0 min 0 min 0,0 UV-I 187 W/m 10,5 km/h (2 Bft)
17.06.2014 08:34 14,2 C 14,4 C 87 % 1022,3 hPa 0,0 l/m 0 min 0 min 0,0 UV-I 178 W/m 4,2 km/h (1 Bft)
17.06.2014 08:36 14,2 C 14,4 C 87 % 1022,2 hPa 0,0 l/m 0 min 0 min 0,0 UV-I 171 W/m 12,6 km/h (3 Bft)
17.06.2014 08:38 14,2 C 14,4 C 87 % 1022,2 hPa 0,0 l/m 0 min 0 min 0,0 UV-I 160 W/m 12,6 km/h (3 Bft)
17.06.2014 08:40 14,2 C 14,4 C 86 % 1022,2 hPa 0,0 l/m 0 min 0 min 0,0 UV-I 154 W/m 10,5 km/h (2 Bft)
17.06.2014 08:42 14,2 C 14,4 C 87 % 1022,3 hPa 0,0 l/m 0 min 0 min 0,0 UV-I 150 W/m 0,0 km/h (0 Bft)
17.06.2014 08:44 14,2 C 14,4 C 87 % 1022,4 hPa 0,0 l/m 0 min 0 min 0,0 UV-I 166 W/m 12,6 km/h (3 Bft)
17.06.2014 08:46 14,2 C 14,4 C 87 % 1022,3 hPa 0,0 l/m 0 min 0 min 0,0 UV-I 179 W/m 14,6 km/h (3 Bft)
17.06.2014 08:48 14,2 C 14,4 C 87 % 1022,3 hPa 0,0 l/m 0 min 0 min 0,0 UV-I 192 W/m 10,5 km/h (2 Bft)
17.06.2014 08:50 14,2 C 14,4 C 87 % 1022,2 hPa 0,0 l/m 0 min 0 min 0,0 UV-I 213 W/m 14,6 km/h (3 Bft)
17.06.2014 08:52 14,2 C 14,4 C 86 % 1022,2 hPa 0,0 l/m 0 min 0 min 0,0 UV-I 248 W/m 14,6 km/h (3 Bft)
17.06.2014 08:54 14,2 C 14,4 C 87 % 1022,2 hPa 0,0 l/m 2 min 0 min 0,0 UV-I 288 W/m 12,6 km/h (3 Bft)
17.06.2014 08:56 14,3 C 14,4 C 87 % 1022,2 hPa 0,0 l/m 2 min 0 min 0,0 UV-I 331 W/m 10,5 km/h (2 Bft)
17.06.2014 08:58 14,4 C 14,4 C 87 % 1022,3 hPa 0,0 l/m 2 min 0 min 0,0 UV-I 374 W/m 10,5 km/h (2 Bft)
17.06.2014 09:00 14,6 C 15,0 C 87 % 1022,3 hPa 0,0 l/m 2 min 0 min 0,6 UV-I 374 W/m 10,5 km/h (2 Bft)
17.06.2014 09:02 14,7 C 15,0 C 87 % 1022,3 hPa 0,0 l/m 2 min 0 min 0,8 UV-I 469 W/m 10,5 km/h (2 Bft)
17.06.2014 09:04 14,8 C 15,0 C 86 % 1022,4 hPa 0,0 l/m 2 min 0 min 0,9 UV-I 469 W/m 14,6 km/h (3 Bft)
17.06.2014 09:06 14,9 C 15,0 C 86 % 1022,4 hPa 0,0 l/m 2 min 0 min 0,7 UV-I 469 W/m 16,7 km/h (3 Bft)
17.06.2014 09:08 15,0 C 15,0 C 86 % 1022,4 hPa 0,0 l/m 2 min 0 min 0,8 UV-I 693 W/m 10,5 km/h (2 Bft)
17.06.2014 09:10 15,1 C 14,4 C 85 % 1022,4 hPa 0,0 l/m 2 min 0 min 0,5 UV-I 693 W/m 10,5 km/h (2 Bft)
17.06.2014 09:12 15,2 C 14,4 C 85 % 1022,4 hPa 0,0 l/m 0 min 0 min 0,8 UV-I 289 W/m 10,5 km/h (2 Bft)
17.06.2014 09:14 15,2 C 15,0 C 85 % 1022,4 hPa 0,0 l/m 0 min 0 min 1,0 UV-I 289 W/m 10,5 km/h (2 Bft)
17.06.2014 09:16 15,4 C 15,6 C 85 % 1022,4 hPa 0,0 l/m 2 min 0 min 0,9 UV-I 800 W/m 10,5 km/h (2 Bft)
17.06.2014 09:18 15,6 C 15,6 C 85 % 1022,5 hPa 0,0 l/m 2 min 0 min 0,8 UV-I 704 W/m 10,5 km/h (2 Bft)
17.06.2014 09:20 15,8 C 15,6 C 84 % 1022,5 hPa 0,0 l/m 0 min 0 min 0,0 UV-I 229 W/m 18,8 km/h (3 Bft)
17.06.2014 09:22 15,6 C 15,6 C 83 % 1022,5 hPa 0,0 l/m 0 min 0 min 0,0 UV-I 210 W/m 16,7 km/h (3 Bft)
17.06.2014 09:24 15,5 C 15,6 C 84 % 1022,4 hPa 0,0 l/m 0 min 0 min 0,0 UV-I 243 W/m 12,6 km/h (3 Bft)
17.06.2014 09:26 15,4 C 15,6 C 84 % 1022,4 hPa 0,0 l/m 0 min 0 min 0,0 UV-I 251 W/m 14,6 km/h (3 Bft)
17.06.2014 09:28 15,4 C 15,6 C 84 % 1022,4 hPa 0,0 l/m 0 min 0 min 0,0 UV-I 238 W/m 12,6 km/h (3 Bft)
17.06.2014 09:30 15,4 C 15,6 C 85 % 1022,4 hPa 0,0 l/m 0 min 0 min 0,0 UV-I 216 W/m 8,4 km/h (2 Bft)
17.06.2014 09:32 15,4 C 15,6 C 85 % 1022,4 hPa 0,0 l/m 0 min 0 min 0,0 UV-I 192 W/m 10,5 km/h (2 Bft)
17.06.2014 09:34 15,4 C 15,6 C 85 % 1022,4 hPa 0,0 l/m 0 min 0 min 0,0 UV-I 214 W/m 10,5 km/h (2 Bft)
17.06.2014 09:36 15,5 C 15,6 C 85 % 1022,4 hPa 0,0 l/m 0 min 0 min 0,0 UV-I 253 W/m 10,5 km/h (2 Bft)
17.06.2014 09:38 15,5 C 15,6 C 85 % 1022,4 hPa 0,0 l/m 0 min 0 min 0,0 UV-I 283 W/m 8,4 km/h (2 Bft)
17.06.2014 09:40 15,5 C 15,6 C 84 % 1022,4 hPa 0,0 l/m 0 min 0 min 0,8 UV-I 261 W/m 10,5 km/h (2 Bft)
17.06.2014 09:42 15,7 C 16,1 C 85 % 1022,4 hPa 0,0 l/m 2 min 0 min 0,7 UV-I 453 W/m 8,4 km/h (2 Bft)
17.06.2014 09:44 15,8 C 16,1 C 85 % 1022,4 hPa 0,0 l/m 0 min 0 min 0,0 UV-I 229 W/m 10,5 km/h (2 Bft)
17.06.2014 09:46 15,8 C 16,1 C 84 % 1022,3 hPa 0,0 l/m 0 min 0 min 0,0 UV-I 214 W/m 10,5 km/h (2 Bft)
17.06.2014 09:48 15,8 C 15,6 C 84 % 1022,4 hPa 0,0 l/m 0 min 0 min 0,0 UV-I 227 W/m 12,6 km/h (3 Bft)
17.06.2014 09:50 15,8 C 15,6 C 84 % 1022,3 hPa 0,0 l/m 0 min 0 min 0,0 UV-I 243 W/m 10,5 km/h (2 Bft)
17.06.2014 09:52 15,8 C 16,1 C 84 % 1022,3 hPa 0,0 l/m 0 min 0 min 0,5 UV-I 263 W/m 14,6 km/h (3 Bft)
17.06.2014 09:54 15,8 C 16,1 C 83 % 1022,3 hPa 0,0 l/m 0 min 0 min 0,6 UV-I 339 W/m 12,6 km/h (3 Bft)
17.06.2014 09:56 15,8 C 16,1 C 84 % 1022,3 hPa 0,0 l/m 2 min 0 min 0,8 UV-I 371 W/m 12,6 km/h (3 Bft)
17.06.2014 09:58 15,9 C 16,1 C 83 % 1022,3 hPa 0,0 l/m 2 min 0 min 0,8 UV-I 370 W/m 12,6 km/h (3 Bft)
17.06.2014 10:00 15,9 C 16,1 C 83 % 1022,4 hPa 0,0 l/m 2 min 0 min 0,8 UV-I 360 W/m 14,6 km/h (3 Bft)
17.06.2014 10:02 16,0 C 16,7 C 83 % 1022,4 hPa 0,0 l/m 0 min 0 min 0,6 UV-I 331 W/m 12,6 km/h (3 Bft)
17.06.2014 10:04 16,0 C 16,7 C 83 % 1022,4 hPa 0,0 l/m 0 min 0 min 0,6 UV-I 334 W/m 12,6 km/h (3 Bft)
17.06.2014 10:06 16,1 C 16,7 C 83 % 1022,3 hPa 0,0 l/m 0 min 0 min 0,6 UV-I 331 W/m 6,3 km/h (2 Bft)
17.06.2014 10:08 16,2 C 16,7 C 84 % 1022,4 hPa 0,0 l/m 0 min 0 min 0,5 UV-I 317 W/m 12,6 km/h (3 Bft)
17.06.2014 10:10 16,2 C 16,7 C 83 % 1022,3 hPa 0,0 l/m 0 min 0 min 0,6 UV-I 346 W/m 16,7 km/h (3 Bft)
17.06.2014 10:12 16,2 C 16,7 C 83 % 1022,3 hPa 0,0 l/m 0 min 0 min 0,6 UV-I 304 W/m 16,7 km/h (3 Bft)
17.06.2014 10:14 16,2 C 16,7 C 83 % 1022,3 hPa 0,0 l/m 0 min 0 min 0,0 UV-I 259 W/m 16,7 km/h (3 Bft)
17.06.2014 10:16 16,2 C 16,7 C 82 % 1022,3 hPa 0,0 l/m 0 min 0 min 0,0 UV-I 254 W/m 18,8 km/h (3 Bft)
17.06.2014 10:18 16,1 C 16,1 C 83 % 1022,3 hPa 0,0 l/m 0 min 0 min 0,0 UV-I 248 W/m 12,6 km/h (3 Bft)
17.06.2014 10:20 16,1 C 16,1 C 83 % 1022,3 hPa 0,0 l/m 0 min 0 min 0,0 UV-I 254 W/m 14,6 km/h (3 Bft)
17.06.2014 10:22 16,1 C 16,1 C 83 % 1022,3 hPa 0,0 l/m 0 min 0 min 0,0 UV-I 271 W/m 14,6 km/h (3 Bft)
17.06.2014 10:24 16,2 C 16,7 C 83 % 1022,3 hPa 0,0 l/m 0 min 0 min 0,0 UV-I 264 W/m 12,6 km/h (3 Bft)
17.06.2014 10:26 16,2 C 16,7 C 83 % 1022,3 hPa 0,0 l/m 0 min 0 min 0,5 UV-I 279 W/m 14,6 km/h (3 Bft)
17.06.2014 10:28 16,2 C 16,7 C 83 % 1022,3 hPa 0,0 l/m 0 min 0 min 0,6 UV-I 289 W/m 14,6 km/h (3 Bft)
17.06.2014 10:30 16,2 C 16,7 C 83 % 1022,3 hPa 0,0 l/m 0 min 0 min 0,5 UV-I 273 W/m 14,6 km/h (3 Bft)
17.06.2014 10:32 16,3 C 16,7 C 83 % 1022,3 hPa 0,0 l/m 0 min 0 min 0,0 UV-I 254 W/m 14,6 km/h (3 Bft)
17.06.2014 10:34 16,3 C 16,7 C 83 % 1022,3 hPa 0,0 l/m 0 min 0 min 0,0 UV-I 245 W/m 16,7 km/h (3 Bft)
17.06.2014 10:36 16,3 C 16,7 C 83 % 1022,3 hPa 0,0 l/m 0 min 0 min 0,6 UV-I 296 W/m 16,7 km/h (3 Bft)
17.06.2014 10:38 16,3 C 16,7 C 83 % 1022,2 hPa 0,0 l/m 0 min 0 min 0,7 UV-I 305 W/m 16,7 km/h (3 Bft)
17.06.2014 10:40 16,3 C 16,7 C 83 % 1022,2 hPa 0,0 l/m 0 min 0 min 0,7 UV-I 307 W/m 14,6 km/h (3 Bft)
17.06.2014 10:42 16,3 C 16,7 C 83 % 1022,3 hPa 0,0 l/m 0 min 0 min 0,8 UV-I 323 W/m 10,5 km/h (2 Bft)
17.06.2014 10:44 16,4 C 17,2 C 84 % 1022,3 hPa 0,0 l/m 0 min 0 min 0,6 UV-I 301 W/m 12,6 km/h (3 Bft)
17.06.2014 10:46 16,5 C 17,2 C 83 % 1022,3 hPa 0,0 l/m 0 min 0 min 0,6 UV-I 279 W/m 12,6 km/h (3 Bft)
17.06.2014 10:48 16,5 C 17,2 C 83 % 1022,2 hPa 0,0 l/m 0 min 0 min 0,7 UV-I 301 W/m 14,6 km/h (3 Bft)
17.06.2014 10:50 16,4 C 17,2 C 82 % 1022,3 hPa 0,0 l/m 0 min 0 min 0,7 UV-I 304 W/m 18,8 km/h (3 Bft)
17.06.2014 10:52 16,3 C 16,7 C 83 % 1022,3 hPa 0,0 l/m 0 min 0 min 0,7 UV-I 307 W/m 14,6 km/h (3 Bft)
17.06.2014 10:54 16,3 C 17,2 C 83 % 1022,2 hPa 0,0 l/m 0 min 0 min 0,9 UV-I 331 W/m 12,6 km/h (3 Bft)
17.06.2014 10:56 16,4 C 17,2 C 83 % 1022,2 hPa 0,0 l/m 0 min 0 min 0,9 UV-I 350 W/m 10,5 km/h (2 Bft)
17.06.2014 10:58 16,4 C 17,2 C 83 % 1022,3 hPa 0,0 l/m 0 min 0 min 0,9 UV-I 352 W/m 16,7 km/h (3 Bft)
17.06.2014 11:00 16,6 C 17,8 C 83 % 1022,3 hPa 0,0 l/m 0 min 0 min 0,9 UV-I 350 W/m 10,5 km/h (2 Bft)
17.06.2014 11:02 16,6 C 17,8 C 83 % 1022,3 hPa 0,0 l/m 0 min 0 min 0,8 UV-I 330 W/m 10,5 km/h (2 Bft)
17.06.2014 11:04 16,6 C 17,2 C 82 % 1022,3 hPa 0,0 l/m 0 min 0 min 0,8 UV-I 330 W/m 12,6 km/h (3 Bft)
17.06.2014 11:06 16,7 C 17,8 C 82 % 1022,3 hPa 0,0 l/m 0 min 0 min 1,0 UV-I 368 W/m 10,5 km/h (2 Bft)
17.06.2014 11:08 16,8 C 17,8 C 82 % 1022,3 hPa 0,0 l/m 0 min 0 min 1,1 UV-I 376 W/m 14,6 km/h (3 Bft)
17.06.2014 11:10 16,8 C 17,8 C 82 % 1022,3 hPa 0,0 l/m 2 min 0 min 1,2 UV-I 422 W/m 14,6 km/h (3 Bft)
17.06.2014 11:12 17,0 C 18,3 C 82 % 1022,3 hPa 0,0 l/m 2 min 0 min 1,3 UV-I 429 W/m 10,5 km/h (2 Bft)
17.06.2014 11:14 17,1 C 18,3 C 81 % 1022,3 hPa 0,0 l/m 2 min 0 min 1,5 UV-I 448 W/m 10,5 km/h (2 Bft)
17.06.2014 11:16 17,1 C 18,3 C 81 % 1022,2 hPa 0,0 l/m 2 min 0 min 1,6 UV-I 531 W/m 12,6 km/h (3 Bft)
17.06.2014 11:18 17,1 C 18,9 C 81 % 1022,1 hPa 0,0 l/m 2 min 0 min 1,9 UV-I 531 W/m 8,4 km/h (2 Bft)
17.06.2014 11:20 17,2 C 18,9 C 81 % 1022,1 hPa 0,0 l/m 2 min 0 min 1,9 UV-I 558 W/m 10,5 km/h (2 Bft)
17.06.2014 11:22 17,4 C 19,4 C 81 % 1022,1 hPa 0,0 l/m 2 min 0 min 1,9 UV-I 534 W/m 10,5 km/h (2 Bft)
17.06.2014 11:24 17,5 C 19,4 C 81 % 1022,2 hPa 0,0 l/m 2 min 0 min 1,8 UV-I 590 W/m 18,8 km/h (3 Bft)
17.06.2014 11:26 17,4 C 18,9 C 79 % 1022,2 hPa 0,0 l/m 2 min 0 min 1,4 UV-I 477 W/m 12,6 km/h (3 Bft)
17.06.2014 11:28 17,4 C 18,9 C 80 % 1022,2 hPa 0,0 l/m 0 min 0 min 1,0 UV-I 338 W/m 12,6 km/h (3 Bft)
17.06.2014 11:30 17,3 C 18,3 C 80 % 1022,2 hPa 0,0 l/m 0 min 0 min 0,7 UV-I 297 W/m 12,6 km/h (3 Bft)
17.06.2014 11:32 17,3 C 17,8 C 80 % 1022,2 hPa 0,0 l/m 0 min 0 min 0,6 UV-I 253 W/m 14,6 km/h (3 Bft)
17.06.2014 11:34 17,1 C 17,8 C 80 % 1022,2 hPa 0,0 l/m 0 min 0 min 0,5 UV-I 232 W/m 12,6 km/h (3 Bft)
17.06.2014 11:36 17,0 C 17,2 C 80 % 1022,2 hPa 0,0 l/m 0 min 0 min 0,0 UV-I 224 W/m 16,7 km/h (3 Bft)
17.06.2014 11:38 16,9 C 17,2 C 81 % 1022,2 hPa 0,0 l/m 0 min 0 min 0,0 UV-I 222 W/m 16,7 km/h (3 Bft)
17.06.2014 11:40 16,9 C 17,2 C 80 % 1022,2 hPa 0,0 l/m 0 min 0 min 0,6 UV-I 269 W/m 12,6 km/h (3 Bft)
17.06.2014 11:42 16,9 C 17,2 C 81 % 1022,2 hPa 0,0 l/m 0 min 0 min 1,2 UV-I 301 W/m 8,4 km/h (2 Bft)
17.06.2014 11:44 17,1 C 17,8 C 82 % 1022,2 hPa 0,0 l/m 0 min 0 min 1,7 UV-I 413 W/m 10,5 km/h (2 Bft)
17.06.2014 11:46 17,2 C 18,3 C 81 % 1022,2 hPa 0,0 l/m 2 min 0 min 2,6 UV-I 688 W/m 12,6 km/h (3 Bft)
17.06.2014 11:48 17,2 C 18,9 C 81 % 1022,2 hPa 0,0 l/m 2 min 0 min 2,7 UV-I 685 W/m 12,6 km/h (3 Bft)
17.06.2014 11:50 17,3 C 18,9 C 81 % 1022,2 hPa 0,0 l/m 2 min 0 min 2,2 UV-I 526 W/m 12,6 km/h (3 Bft)
17.06.2014 11:52 17,6 C 19,4 C 81 % 1022,1 hPa 0,0 l/m 2 min 0 min 3,2 UV-I 754 W/m 14,6 km/h (3 Bft)
17.06.2014 11:54 17,6 C 20,0 C 80 % 1022,1 hPa 0,0 l/m 2 min 0 min 1,7 UV-I 762 W/m 10,5 km/h (2 Bft)
17.06.2014 11:56 17,6 C 19,4 C 80 % 1022,1 hPa 0,0 l/m 0 min 0 min 0,9 UV-I 342 W/m 14,6 km/h (3 Bft)
17.06.2014 11:58 17,4 C 18,9 C 79 % 1022,1 hPa 0,0 l/m 0 min 0 min 0,6 UV-I 254 W/m 14,6 km/h (3 Bft)
17.06.2014 12:00 17,3 C 18,3 C 80 % 1022,1 hPa 0,0 l/m 0 min 0 min 0,7 UV-I 245 W/m 18,8 km/h (3 Bft)
17.06.2014 12:02 17,3 C 18,3 C 80 % 1022,1 hPa 0,0 l/m 0 min 0 min 0,9 UV-I 275 W/m 12,6 km/h (3 Bft)
17.06.2014 12:06 17,3 C 18,3 C 80 % 1022,1 hPa 0,0 l/m 0 min 0 min 1,4 UV-I 378 W/m 16,7 km/h (3 Bft)
17.06.2014 12:08 17,2 C 18,3 C 80 % 1022,1 hPa 0,0 l/m 0 min 0 min 1,4 UV-I 378 W/m 8,4 km/h (2 Bft)
17.06.2014 12:10 17,3 C 18,3 C 80 % 1022,0 hPa 0,0 l/m 0 min 0 min 1,4 UV-I 402 W/m 8,4 km/h (2 Bft)
17.06.2014 12:12 17,3 C 18,3 C 80 % 1022,0 hPa 0,0 l/m 0 min 0 min 1,0 UV-I 331 W/m 6,3 km/h (2 Bft)
17.06.2014 12:14 17,2 C 18,3 C 80 % 1022,1 hPa 0,0 l/m 0 min 0 min 0,6 UV-I 254 W/m 10,5 km/h (2 Bft)
17.06.2014 12:16 17,3 C 17,8 C 81 % 1022,1 hPa 0,0 l/m 0 min 0 min 0,0 UV-I 206 W/m 8,4 km/h (2 Bft)
17.06.2014 12:18 17,4 C 17,8 C 81 % 1022,2 hPa 0,0 l/m 0 min 0 min 0,7 UV-I 230 W/m 14,6 km/h (3 Bft)
17.06.2014 12:20 17,4 C 17,8 C 81 % 1022,1 hPa 0,0 l/m 0 min 0 min 1,0 UV-I 288 W/m 18,8 km/h (3 Bft)
17.06.2014 12:22 17,4 C 18,3 C 80 % 1022,1 hPa 0,0 l/m 0 min 0 min 1,5 UV-I 368 W/m 14,6 km/h (3 Bft)
17.06.2014 12:24 17,4 C 18,3 C 80 % 1022,1 hPa 0,0 l/m 0 min 0 min 1,4 UV-I 371 W/m 10,5 km/h (2 Bft)
17.06.2014 12:26 17,5 C 18,9 C 80 % 1022,1 hPa 0,0 l/m 0 min 0 min 1,2 UV-I 350 W/m 14,6 km/h (3 Bft)
17.06.2014 12:28 17,5 C 18,3 C 80 % 1022,0 hPa 0,0 l/m 0 min 0 min 1,2 UV-I 325 W/m 14,6 km/h (3 Bft)
17.06.2014 12:30 17,6 C 18,3 C 78 % 1022,1 hPa 0,0 l/m 0 min 0 min 1,4 UV-I 371 W/m 18,8 km/h (3 Bft)
17.06.2014 12:32 17,7 C 18,9 C 79 % 1022,0 hPa 0,0 l/m 2 min 0 min 1,6 UV-I 505 W/m 12,6 km/h (3 Bft)
17.06.2014 12:34 17,7 C 18,9 C 79 % 1022,0 hPa 0,0 l/m 0 min 0 min 1,1 UV-I 363 W/m 10,5 km/h (2 Bft)
17.06.2014 12:36 18,0 C 18,9 C 79 % 1022,1 hPa 0,0 l/m 0 min 0 min 0,5 UV-I 227 W/m 8,4 km/h (2 Bft)
17.06.2014 12:38 18,0 C 18,3 C 79 % 1022,0 hPa 0,0 l/m 0 min 0 min 0,0 UV-I 208 W/m 16,7 km/h (3 Bft)
17.06.2014 12:40 17,9 C 18,3 C 79 % 1022,0 hPa 0,0 l/m 0 min 0 min 0,9 UV-I 264 W/m 23,0 km/h (4 Bft)
17.06.2014 12:42 17,8 C 18,3 C 79 % 1022,1 hPa 0,0 l/m 0 min 0 min 1,4 UV-I 347 W/m 14,6 km/h (3 Bft)
17.06.2014 12:44 17,8 C 18,9 C 79 % 1022,0 hPa 0,0 l/m 0 min 0 min 1,5 UV-I 384 W/m 14,6 km/h (3 Bft)
17.06.2014 12:46 17,8 C 18,9 C 79 % 1022,0 hPa 0,0 l/m 0 min 0 min 1,5 UV-I 386 W/m 14,6 km/h (3 Bft)
17.06.2014 12:48 17,8 C 18,9 C 78 % 1022,0 hPa 0,0 l/m 0 min 0 min 1,3 UV-I 363 W/m 12,6 km/h (3 Bft)
17.06.2014 12:50 17,9 C 18,9 C 79 % 1022,0 hPa 0,0 l/m 0 min 0 min 1,2 UV-I 323 W/m 12,6 km/h (3 Bft)
17.06.2014 12:52 17,9 C 18,9 C 78 % 1022,0 hPa 0,0 l/m 0 min 0 min 1,0 UV-I 301 W/m 12,6 km/h (3 Bft)
17.06.2014 12:54 17,9 C 18,9 C 79 % 1022,0 hPa 0,0 l/m 0 min 0 min 0,7 UV-I 243 W/m 16,7 km/h (3 Bft)
17.06.2014 12:56 18,1 C 18,3 C 78 % 1022,0 hPa 0,0 l/m 0 min 0 min 0,5 UV-I 210 W/m 16,7 km/h (3 Bft)
17.06.2014 12:58 17,9 C 18,3 C 78 % 1022,0 hPa 0,0 l/m 0 min 0 min 0,0 UV-I 184 W/m 12,6 km/h (3 Bft)
17.06.2014 13:00 17,9 C 17,8 C 78 % 1021,9 hPa 0,0 l/m 0 min 0 min 0,0 UV-I 176 W/m 14,6 km/h (3 Bft)
17.06.2014 13:02 17,8 C 17,8 C 79 % 1022,0 hPa 0,0 l/m 0 min 0 min 0,5 UV-I 216 W/m 20,9 km/h (4 Bft)
17.06.2014 13:04 17,8 C 17,8 C 79 % 1022,0 hPa 0,0 l/m 0 min 0 min 0,8 UV-I 245 W/m 10,5 km/h (2 Bft)
17.06.2014 13:06 17,8 C 17,8 C 79 % 1021,9 hPa 0,0 l/m 0 min 0 min 0,8 UV-I 259 W/m 16,7 km/h (3 Bft)
17.06.2014 13:08 17,8 C 17,8 C 79 % 1022,0 hPa 0,0 l/m 0 min 0 min 0,9 UV-I 283 W/m 10,5 km/h (2 Bft)
17.06.2014 13:10 17,8 C 17,8 C 79 % 1021,9 hPa 0,0 l/m 0 min 0 min 0,8 UV-I 267 W/m 14,6 km/h (3 Bft)
17.06.2014 13:12 17,8 C 18,3 C 80 % 1022,0 hPa 0,0 l/m 0 min 0 min 0,6 UV-I 232 W/m 10,5 km/h (2 Bft)
17.06.2014 13:14 17,8 C 18,3 C 80 % 1022,0 hPa 0,0 l/m 0 min 0 min 0,0 UV-I 190 W/m 16,7 km/h (3 Bft)
17.06.2014 13:16 17,8 C 17,8 C 79 % 1022,0 hPa 0,0 l/m 0 min 0 min 0,0 UV-I 179 W/m 12,6 km/h (3 Bft)
17.06.2014 13:18 17,8 C 17,8 C 80 % 1021,9 hPa 0,0 l/m 0 min 0 min 0,5 UV-I 194 W/m 14,6 km/h (3 Bft)
17.06.2014 13:20 17,8 C 17,8 C 80 % 1021,9 hPa 0,0 l/m 0 min 0 min 0,7 UV-I 238 W/m 16,7 km/h (3 Bft)
17.06.2014 13:22 17,8 C 17,8 C 79 % 1021,9 hPa 0,0 l/m 0 min 0 min 0,9 UV-I 261 W/m 14,6 km/h (3 Bft)
17.06.2014 13:24 17,8 C 18,3 C 80 % 1021,9 hPa 0,0 l/m 0 min 0 min 0,9 UV-I 275 W/m 18,8 km/h (3 Bft)
17.06.2014 13:26 17,9 C 18,3 C 80 % 1022,0 hPa 0,0 l/m 0 min 0 min 0,9 UV-I 269 W/m 10,5 km/h (2 Bft)
17.06.2014 13:28 17,9 C 18,3 C 80 % 1022,0 hPa 0,0 l/m 0 min 0 min 0,7 UV-I 240 W/m 8,4 km/h (2 Bft)
17.06.2014 13:30 18,0 C 18,3 C 81 % 1021,9 hPa 0,0 l/m 0 min 0 min 0,0 UV-I 205 W/m 10,5 km/h (2 Bft)
17.06.2014 13:32 18,2 C 18,3 C 82 % 1021,9 hPa 0,0 l/m 0 min 0 min 0,0 UV-I 130 W/m 4,2 km/h (1 Bft)
17.06.2014 13:34 18,1 C 17,8 C 80 % 1021,9 hPa 0,0 l/m 0 min 0 min 0,0 UV-I 117 W/m 10,5 km/h (2 Bft)
17.06.2014 13:36 18,1 C 17,8 C 80 % 1022,0 hPa 0,0 l/m 0 min 0 min 0,0 UV-I 123 W/m 12,6 km/h (3 Bft)
17.06.2014 13:38 17,9 C 17,8 C 80 % 1021,9 hPa 0,0 l/m 0 min 0 min 0,0 UV-I 113 W/m 12,6 km/h (3 Bft)
17.06.2014 13:40 17,9 C 17,2 C 81 % 1022,0 hPa 0,0 l/m 0 min 0 min 0,0 UV-I 128 W/m 8,4 km/h (2 Bft)
17.06.2014 13:42 17,8 C 17,2 C 80 % 1022,0 hPa 0,0 l/m 0 min 0 min 0,0 UV-I 158 W/m 14,6 km/h (3 Bft)
17.06.2014 13:44 17,7 C 17,2 C 81 % 1022,0 hPa 0,0 l/m 0 min 0 min 0,0 UV-I 166 W/m 14,6 km/h (3 Bft)
17.06.2014 13:46 17,7 C 17,2 C 82 % 1022,0 hPa 0,0 l/m 0 min 0 min 0,0 UV-I 139 W/m 16,7 km/h (3 Bft)
17.06.2014 13:48 17,6 C 17,2 C 82 % 1022,0 hPa 0,0 l/m 0 min 0 min 0,0 UV-I 166 W/m 16,7 km/h (3 Bft)
17.06.2014 13:50 17,6 C 17,2 C 82 % 1022,0 hPa 0,0 l/m 0 min 0 min 0,0 UV-I 171 W/m 16,7 km/h (3 Bft)
17.06.2014 13:52 17,5 C 17,2 C 82 % 1022,0 hPa 0,0 l/m 0 min 0 min 0,5 UV-I 206 W/m 16,7 km/h (3 Bft)
17.06.2014 13:54 17,6 C 17,8 C 83 % 1022,0 hPa 0,0 l/m 0 min 0 min 0,8 UV-I 271 W/m 20,9 km/h (4 Bft)
17.06.2014 13:56 17,7 C 17,8 C 83 % 1022,0 hPa 0,0 l/m 0 min 0 min 0,9 UV-I 277 W/m 18,8 km/h (3 Bft)
17.06.2014 13:58 17,7 C 17,8 C 83 % 1022,0 hPa 0,0 l/m 0 min 0 min 0,0 UV-I 208 W/m 16,7 km/h (3 Bft)
17.06.2014 14:00 17,7 C 17,8 C 83 % 1022,0 hPa 0,0 l/m 0 min 0 min 0,0 UV-I 154 W/m 14,6 km/h (3 Bft)
17.06.2014 14:02 17,7 C 17,2 C 83 % 1022,0 hPa 0,0 l/m 0 min 0 min 0,0 UV-I 144 W/m 16,7 km/h (3 Bft)
17.06.2014 14:04 17,7 C 17,2 C 83 % 1022,0 hPa 0,0 l/m 0 min 0 min 0,0 UV-I 155 W/m 14,6 km/h (3 Bft)
17.06.2014 14:06 17,6 C 17,2 C 83 % 1022,0 hPa 0,0 l/m 0 min 0 min 0,0 UV-I 162 W/m 20,9 km/h (4 Bft)
17.06.2014 14:08 17,6 C 17,2 C 82 % 1022,0 hPa 0,0 l/m 0 min 0 min 0,5 UV-I 208 W/m 20,9 km/h (4 Bft)
17.06.2014 14:10 17,6 C 17,2 C 83 % 1022,0 hPa 0,0 l/m 0 min 0 min 0,8 UV-I 248 W/m 23,0 km/h (4 Bft)
17.06.2014 14:12 17,6 C 17,8 C 83 % 1022,0 hPa 0,0 l/m 0 min 0 min 1,2 UV-I 346 W/m 14,6 km/h (3 Bft)
17.06.2014 14:14 17,6 C 17,8 C 83 % 1022,0 hPa 0,0 l/m 0 min 0 min 1,4 UV-I 368 W/m 20,9 km/h (4 Bft)
17.06.2014 14:16 17,7 C 18,3 C 83 % 1021,9 hPa 0,0 l/m 0 min 0 min 1,1 UV-I 328 W/m 16,7 km/h (3 Bft)
17.06.2014 14:18 17,8 C 17,8 C 83 % 1022,0 hPa 0,0 l/m 0 min 0 min 0,7 UV-I 230 W/m 20,9 km/h (4 Bft)
17.06.2014 14:20 17,8 C 17,8 C 83 % 1022,0 hPa 0,0 l/m 0 min 0 min 0,6 UV-I 240 W/m 18,8 km/h (3 Bft)
17.06.2014 14:22 17,8 C 17,8 C 83 % 1022,0 hPa 0,0 l/m 0 min 0 min 0,5 UV-I 222 W/m 12,6 km/h (3 Bft)
17.06.2014 14:24 17,8 C 17,8 C 83 % 1022,0 hPa 0,0 l/m 0 min 0 min 0,0 UV-I 208 W/m 20,9 km/h (4 Bft)
17.06.2014 14:26 17,7 C 17,8 C 83 % 1022,0 hPa 0,0 l/m 0 min 0 min 0,6 UV-I 224 W/m 16,7 km/h (3 Bft)
17.06.2014 14:28 17,7 C 17,8 C 83 % 1022,0 hPa 0,0 l/m 0 min 0 min 0,7 UV-I 251 W/m 23,0 km/h (4 Bft)
17.06.2014 14:30 17,7 C 17,8 C 84 % 1022,0 hPa 0,0 l/m 0 min 0 min 0,5 UV-I 214 W/m 12,6 km/h (3 Bft)
17.06.2014 14:32 17,7 C 17,8 C 84 % 1022,0 hPa 0,0 l/m 0 min 0 min 0,6 UV-I 230 W/m 6,3 km/h (2 Bft)
17.06.2014 14:34 17,7 C 18,3 C 83 % 1021,9 hPa 0,0 l/m 0 min 0 min 0,7 UV-I 259 W/m 8,4 km/h (2 Bft)
17.06.2014 14:36 17,8 C 18,3 C 84 % 1021,9 hPa 0,0 l/m 0 min 0 min 1,1 UV-I 313 W/m 14,6 km/h (3 Bft)
17.06.2014 14:38 17,9 C 18,9 C 84 % 1021,9 hPa 0,0 l/m 0 min 0 min 1,3 UV-I 346 W/m 20,9 km/h (4 Bft)
17.06.2014 14:40 17,9 C 18,9 C 83 % 1021,8 hPa 0,0 l/m 0 min 0 min 1,3 UV-I 363 W/m 18,8 km/h (3 Bft)
17.06.2014 14:42 17,9 C 18,9 C 83 % 1021,8 hPa 0,0 l/m 0 min 0 min 1,2 UV-I 350 W/m 16,7 km/h (3 Bft)
17.06.2014 14:44 18,0 C 18,3 C 82 % 1021,7 hPa 0,0 l/m 0 min 0 min 0,8 UV-I 296 W/m 14,6 km/h (3 Bft)
17.06.2014 14:46 18,1 C 18,3 C 83 % 1021,6 hPa 0,0 l/m 0 min 0 min 0,7 UV-I 248 W/m 16,7 km/h (3 Bft)
17.06.2014 14:48 18,1 C 18,9 C 83 % 1021,7 hPa 0,0 l/m 0 min 0 min 1,1 UV-I 352 W/m 14,6 km/h (3 Bft)
17.06.2014 14:50 18,2 C 18,9 C 83 % 1021,6 hPa 0,0 l/m 0 min 0 min 1,3 UV-I 355 W/m 10,5 km/h (2 Bft)
17.06.2014 14:52 18,4 C 19,4 C 83 % 1021,6 hPa 0,0 l/m 0 min 0 min 1,5 UV-I 408 W/m 12,6 km/h (3 Bft)
17.06.2014 14:54 18,4 C 19,4 C 82 % 1021,6 hPa 0,0 l/m 0 min 0 min 1,4 UV-I 406 W/m 6,3 km/h (2 Bft)
17.06.2014 14:56 18,4 C 20,0 C 82 % 1021,6 hPa 0,0 l/m 0 min 0 min 1,0 UV-I 330 W/m 8,4 km/h (2 Bft)
17.06.2014 14:58 18,6 C 19,4 C 83 % 1021,6 hPa 0,0 l/m 0 min 0 min 1,0 UV-I 313 W/m 10,5 km/h (2 Bft)
17.06.2014 15:00 18,6 C 19,4 C 82 % 1021,6 hPa 0,0 l/m 0 min 0 min 1,1 UV-I 358 W/m 10,5 km/h (2 Bft)
17.06.2014 15:02 18,6 C 19,4 C 82 % 1021,5 hPa 0,0 l/m 0 min 0 min 1,0 UV-I 352 W/m 14,6 km/h (3 Bft)
17.06.2014 15:04 18,7 C 19,4 C 81 % 1021,5 hPa 0,0 l/m 0 min 0 min 1,0 UV-I 350 W/m 16,7 km/h (3 Bft)
17.06.2014 15:06 18,6 C 19,4 C 81 % 1021,5 hPa 0,0 l/m 0 min 0 min 1,5 UV-I 400 W/m 12,6 km/h (3 Bft)
17.06.2014 15:08 18,7 C 20,0 C 81 % 1021,5 hPa 0,0 l/m 0 min 0 min 1,7 UV-I 438 W/m 16,7 km/h (3 Bft)
17.06.2014 15:10 18,8 C 20,0 C 81 % 1021,5 hPa 0,0 l/m 2 min 0 min 1,9 UV-I 499 W/m 18,8 km/h (3 Bft)
17.06.2014 15:12 19,0 C 20,6 C 81 % 1021,5 hPa 0,0 l/m 2 min 0 min 1,8 UV-I 491 W/m 18,8 km/h (3 Bft)
17.06.2014 15:14 19,1 C 20,6 C 80 % 1021,5 hPa 0,0 l/m 2 min 0 min 1,7 UV-I 465 W/m 14,6 km/h (3 Bft)
17.06.2014 15:16 19,1 C 21,1 C 79 % 1021,5 hPa 0,0 l/m 2 min 0 min 2,1 UV-I 742 W/m 16,7 km/h (3 Bft)
17.06.2014 15:18 19,2 C 22,8 C 79 % 1021,4 hPa 0,0 l/m 2 min 0 min 2,3 UV-I 742 W/m 20,9 km/h (4 Bft)
17.06.2014 15:20 19,4 C 22,2 C 79 % 1021,4 hPa 0,0 l/m 2 min 0 min 1,9 UV-I 501 W/m 20,9 km/h (4 Bft)
17.06.2014 15:22 19,4 C 21,7 C 78 % 1021,4 hPa 0,0 l/m 2 min 0 min 2,1 UV-I 493 W/m 16,7 km/h (3 Bft)
17.06.2014 15:24 19,3 C 22,2 C 78 % 1021,3 hPa 0,0 l/m 2 min 0 min 3,3 UV-I 493 W/m 14,6 km/h (3 Bft)
17.06.2014 15:26 19,4 C 22,8 C 79 % 1021,3 hPa 0,0 l/m 2 min 0 min 2,0 UV-I 493 W/m 14,6 km/h (3 Bft)
17.06.2014 15:28 19,7 C 23,3 C 80 % 1021,3 hPa 0,0 l/m 2 min 0 min 2,2 UV-I 507 W/m 14,6 km/h (3 Bft)
17.06.2014 15:30 19,8 C 22,8 C 78 % 1021,3 hPa 0,0 l/m 2 min 0 min 2,1 UV-I 608 W/m 20,9 km/h (4 Bft)
17.06.2014 15:32 19,9 C 22,8 C 77 % 1021,3 hPa 0,0 l/m 2 min 0 min 2,0 UV-I 624 W/m 14,6 km/h (3 Bft)
17.06.2014 15:34 19,8 C 22,8 C 77 % 1021,3 hPa 0,0 l/m 2 min 0 min 2,0 UV-I 589 W/m 18,8 km/h (3 Bft)
17.06.2014 15:36 19,7 C 22,2 C 78 % 1021,3 hPa 0,0 l/m 2 min 0 min 1,6 UV-I 672 W/m 16,7 km/h (3 Bft)
17.06.2014 15:38 19,6 C 21,7 C 77 % 1021,2 hPa 0,0 l/m 2 min 0 min 1,8 UV-I 520 W/m 12,6 km/h (3 Bft)
17.06.2014 15:40 19,6 C 21,1 C 78 % 1021,2 hPa 0,0 l/m 0 min 0 min 1,2 UV-I 368 W/m 20,9 km/h (4 Bft)
17.06.2014 15:42 19,6 C 21,1 C 78 % 1021,2 hPa 0,0 l/m 0 min 0 min 1,0 UV-I 352 W/m 16,7 km/h (3 Bft)
17.06.2014 15:44 19,7 C 21,1 C 78 % 1021,2 hPa 0,0 l/m 0 min 0 min 1,2 UV-I 374 W/m 16,7 km/h (3 Bft)
17.06.2014 15:46 19,6 C 21,1 C 77 % 1021,2 hPa 0,0 l/m 2 min 0 min 1,4 UV-I 560 W/m 18,8 km/h (3 Bft)
17.06.2014 15:48 19,7 C 22,2 C 79 % 1021,2 hPa 0,0 l/m 2 min 0 min 2,0 UV-I 781 W/m 18,8 km/h (3 Bft)
17.06.2014 15:50 19,8 C 22,2 C 77 % 1021,1 hPa 0,0 l/m 2 min 0 min 1,6 UV-I 496 W/m 16,7 km/h (3 Bft)
17.06.2014 15:52 19,8 C 23,3 C 78 % 1021,2 hPa 0,0 l/m 2 min 0 min 1,7 UV-I 859 W/m 18,8 km/h (3 Bft)
17.06.2014 15:54 20,1 C 24,4 C 79 % 1021,1 hPa 0,0 l/m 2 min 0 min 1,1 UV-I 762 W/m 14,6 km/h (3 Bft)
17.06.2014 15:56 20,1 C 22,8 C 76 % 1021,1 hPa 0,0 l/m 0 min 0 min 0,8 UV-I 334 W/m 12,6 km/h (3 Bft)
17.06.2014 15:58 19,9 C 21,7 C 77 % 1021,1 hPa 0,0 l/m 0 min 0 min 0,0 UV-I 227 W/m 14,6 km/h (3 Bft)
17.06.2014 16:00 19,7 C 20,6 C 76 % 1021,1 hPa 0,0 l/m 0 min 0 min 0,0 UV-I 224 W/m 12,6 km/h (3 Bft)
17.06.2014 16:02 19,6 C 20,6 C 77 % 1021,1 hPa 0,0 l/m 0 min 0 min 0,5 UV-I 259 W/m 14,6 km/h (3 Bft)
17.06.2014 16:04 19,6 C 20,6 C 78 % 1021,1 hPa 0,0 l/m 0 min 0 min 0,7 UV-I 297 W/m 12,6 km/h (3 Bft)
17.06.2014 16:06 19,7 C 20,6 C 78 % 1021,0 hPa 0,0 l/m 0 min 0 min 1,0 UV-I 346 W/m 20,9 km/h (4 Bft)
17.06.2014 16:08 19,7 C 20,6 C 77 % 1021,1 hPa 0,0 l/m 0 min 0 min 1,2 UV-I 397 W/m 18,8 km/h (3 Bft)
17.06.2014 16:10 19,7 C 21,1 C 77 % 1021,0 hPa 0,0 l/m 2 min 0 min 1,3 UV-I 411 W/m 18,8 km/h (3 Bft)
17.06.2014 16:12 19,7 C 21,1 C 75 % 1021,1 hPa 0,0 l/m 0 min 0 min 1,3 UV-I 406 W/m 16,7 km/h (3 Bft)
17.06.2014 16:14 19,7 C 21,1 C 77 % 1021,0 hPa 0,0 l/m 0 min 0 min 1,3 UV-I 368 W/m 16,7 km/h (3 Bft)
17.06.2014 16:16 19,8 C 21,1 C 76 % 1021,0 hPa 0,0 l/m 0 min 0 min 1,3 UV-I 374 W/m 12,6 km/h (3 Bft)
17.06.2014 16:18 19,9 C 21,7 C 76 % 1021,0 hPa 0,0 l/m 2 min 0 min 1,7 UV-I 613 W/m 10,5 km/h (2 Bft)
17.06.2014 16:20 20,2 C 22,2 C 77 % 1020,9 hPa 0,0 l/m 2 min 0 min 1,2 UV-I 664 W/m 14,6 km/h (3 Bft)
17.06.2014 16:22 20,3 C 22,2 C 76 % 1020,9 hPa 0,0 l/m 2 min 0 min 0,9 UV-I 491 W/m 8,4 km/h (2 Bft)
17.06.2014 16:24 20,1 C 22,2 C 75 % 1020,9 hPa 0,0 l/m 0 min 0 min 0,8 UV-I 355 W/m 12,6 km/h (3 Bft)
17.06.2014 16:26 20,2 C 21,7 C 76 % 1020,9 hPa 0,0 l/m 0 min 0 min 0,7 UV-I 328 W/m 10,5 km/h (2 Bft)
17.06.2014 16:28 20,3 C 22,2 C 77 % 1020,8 hPa 0,0 l/m 2 min 0 min 1,1 UV-I 554 W/m 16,7 km/h (3 Bft)
17.06.2014 16:30 20,4 C 22,2 C 76 % 1020,8 hPa 0,0 l/m 2 min 0 min 0,9 UV-I 542 W/m 14,6 km/h (3 Bft)
17.06.2014 16:32 20,4 C 22,2 C 75 % 1020,8 hPa 0,0 l/m 2 min 0 min 1,3 UV-I 566 W/m 16,7 km/h (3 Bft)
17.06.2014 16:34 20,4 C 22,8 C 76 % 1020,8 hPa 0,0 l/m 2 min 0 min 1,1 UV-I 566 W/m 16,7 km/h (3 Bft)
17.06.2014 16:36 20,7 C 22,8 C 74 % 1020,8 hPa 0,0 l/m 2 min 0 min 0,9 UV-I 544 W/m 12,6 km/h (3 Bft)
17.06.2014 16:38 20,8 C 22,8 C 73 % 1020,8 hPa 0,0 l/m 2 min 0 min 0,8 UV-I 485 W/m 20,9 km/h (4 Bft)
17.06.2014 16:40 20,7 C 22,2 C 72 % 1020,8 hPa 0,0 l/m 2 min 0 min 0,6 UV-I 483 W/m 25,1 km/h (4 Bft)
17.06.2014 16:42 20,6 C 21,7 C 73 % 1020,8 hPa 0,0 l/m 0 min 0 min 0,0 UV-I 336 W/m 18,8 km/h (3 Bft)
17.06.2014 16:44 20,5 C 21,7 C 72 % 1020,8 hPa 0,0 l/m 0 min 0 min 0,0 UV-I 317 W/m 16,7 km/h (3 Bft)
17.06.2014 16:46 20,4 C 21,1 C 73 % 1020,8 hPa 0,0 l/m 0 min 0 min 0,0 UV-I 232 W/m 10,5 km/h (2 Bft)
17.06.2014 16:48 20,4 C 21,1 C 73 % 1020,7 hPa 0,0 l/m 0 min 0 min 0,0 UV-I 237 W/m 18,8 km/h (3 Bft)
17.06.2014 16:50 20,3 C 21,1 C 73 % 1020,7 hPa 0,0 l/m 0 min 0 min 0,0 UV-I 283 W/m 16,7 km/h (3 Bft)
17.06.2014 16:52 20,3 C 20,6 C 73 % 1020,7 hPa 0,0 l/m 0 min 0 min 0,0 UV-I 190 W/m 14,6 km/h (3 Bft)
17.06.2014 16:54 20,2 C 20,6 C 73 % 1020,7 hPa 0,0 l/m 0 min 0 min 0,0 UV-I 168 W/m 16,7 km/h (3 Bft)
17.06.2014 16:56 20,2 C 20,0 C 74 % 1020,7 hPa 0,0 l/m 0 min 0 min 0,0 UV-I 170 W/m 14,6 km/h (3 Bft)
17.06.2014 16:58 20,1 C 20,0 C 75 % 1020,7 hPa 0,0 l/m 0 min 0 min 0,0 UV-I 205 W/m 14,6 km/h (3 Bft)
17.06.2014 17:00 20,1 C 20,0 C 74 % 1020,7 hPa 0,0 l/m 0 min 0 min 0,0 UV-I 232 W/m 18,8 km/h (3 Bft)
17.06.2014 17:02 20,1 C 20,0 C 75 % 1020,6 hPa 0,0 l/m 0 min 0 min 0,0 UV-I 205 W/m 12,6 km/h (3 Bft)
17.06.2014 17:04 20,1 C 20,6 C 75 % 1020,7 hPa 0,0 l/m 0 min 0 min 0,0 UV-I 206 W/m 8,4 km/h (2 Bft)
17.06.2014 17:06 20,2 C 20,6 C 75 % 1020,7 hPa 0,0 l/m 0 min 0 min 0,0 UV-I 216 W/m 12,6 km/h (3 Bft)
17.06.2014 17:08 20,1 C 20,0 C 75 % 1020,7 hPa 0,0 l/m 0 min 0 min 0,0 UV-I 221 W/m 12,6 km/h (3 Bft)
17.06.2014 17:10 19,9 C 20,0 C 76 % 1020,7 hPa 0,0 l/m 0 min 0 min 0,0 UV-I 285 W/m 8,4 km/h (2 Bft)
17.06.2014 17:12 19,9 C 20,0 C 75 % 1020,6 hPa 0,0 l/m 0 min 0 min 0,0 UV-I 210 W/m 10,5 km/h (2 Bft)
17.06.2014 17:14 19,9 C 20,0 C 75 % 1020,6 hPa 0,0 l/m 0 min 0 min 0,0 UV-I 253 W/m 20,9 km/h (4 Bft)
17.06.2014 17:16 20,1 C 20,6 C 74 % 1020,6 hPa 0,0 l/m 0 min 0 min 0,0 UV-I 273 W/m 16,7 km/h (3 Bft)
17.06.2014 17:18 20,2 C 20,6 C 73 % 1020,6 hPa 0,0 l/m 0 min 0 min 0,0 UV-I 267 W/m 12,6 km/h (3 Bft)
17.06.2014 17:20 20,2 C 20,6 C 73 % 1020,6 hPa 0,0 l/m 0 min 0 min 0,0 UV-I 273 W/m 10,5 km/h (2 Bft)
17.06.2014 17:22 20,3 C 20,6 C 73 % 1020,5 hPa 0,0 l/m 0 min 0 min 0,0 UV-I 264 W/m 8,4 km/h (2 Bft)
17.06.2014 17:24 20,3 C 20,6 C 73 % 1020,6 hPa 0,0 l/m 0 min 0 min 0,0 UV-I 237 W/m 12,6 km/h (3 Bft)
17.06.2014 17:26 20,4 C 20,6 C 73 % 1020,5 hPa 0,0 l/m 0 min 0 min 0,0 UV-I 237 W/m 14,6 km/h (3 Bft)
17.06.2014 17:28 20,4 C 20,6 C 74 % 1020,6 hPa 0,0 l/m 0 min 0 min 0,0 UV-I 264 W/m 10,5 km/h (2 Bft)
17.06.2014 17:30 20,4 C 20,6 C 74 % 1020,5 hPa 0,0 l/m 0 min 0 min 0,0 UV-I 279 W/m 14,6 km/h (3 Bft)
17.06.2014 17:32 20,4 C 20,6 C 72 % 1020,6 hPa 0,0 l/m 0 min 0 min 0,0 UV-I 275 W/m 18,8 km/h (3 Bft)
17.06.2014 17:34 20,3 C 20,6 C 71 % 1020,5 hPa 0,0 l/m 0 min 0 min 0,0 UV-I 259 W/m 18,8 km/h (3 Bft)
17.06.2014 17:36 20,3 C 20,6 C 72 % 1020,5 hPa 0,0 l/m 0 min 0 min 0,0 UV-I 256 W/m 16,7 km/h (3 Bft)
17.06.2014 17:38 20,3 C 20,6 C 73 % 1020,5 hPa 0,0 l/m 0 min 0 min 0,0 UV-I 277 W/m 14,6 km/h (3 Bft)
17.06.2014 17:40 20,3 C 20,6 C 75 % 1020,5 hPa 0,0 l/m 2 min 0 min 0,0 UV-I 334 W/m 18,8 km/h (3 Bft)
17.06.2014 17:42 20,3 C 20,6 C 75 % 1020,5 hPa 0,0 l/m 2 min 0 min 0,0 UV-I 336 W/m 14,6 km/h (3 Bft)
17.06.2014 17:44 20,3 C 20,6 C 75 % 1020,5 hPa 0,0 l/m 0 min 0 min 0,0 UV-I 309 W/m 10,5 km/h (2 Bft)
17.06.2014 17:46 20,3 C 20,6 C 76 % 1020,4 hPa 0,0 l/m 0 min 0 min 0,0 UV-I 285 W/m 16,7 km/h (3 Bft)
17.06.2014 17:48 20,3 C 20,6 C 75 % 1020,4 hPa 0,0 l/m 0 min 0 min 0,0 UV-I 285 W/m 16,7 km/h (3 Bft)
17.06.2014 17:50 20,2 C 20,6 C 74 % 1020,4 hPa 0,0 l/m 0 min 0 min 0,0 UV-I 267 W/m 14,6 km/h (3 Bft)
17.06.2014 17:52 20,2 C 20,6 C 74 % 1020,4 hPa 0,0 l/m 0 min 0 min 0,0 UV-I 213 W/m 20,9 km/h (4 Bft)
17.06.2014 17:54 20,2 C 20,0 C 74 % 1020,4 hPa 0,0 l/m 0 min 0 min 0,0 UV-I 186 W/m 14,6 km/h (3 Bft)
17.06.2014 17:56 20,2 C 20,0 C 74 % 1020,4 hPa 0,0 l/m 0 min 0 min 0,0 UV-I 197 W/m 14,6 km/h (3 Bft)
17.06.2014 17:58 20,2 C 20,0 C 75 % 1020,4 hPa 0,0 l/m 0 min 0 min 0,0 UV-I 200 W/m 14,6 km/h (3 Bft)
17.06.2014 18:00 20,2 C 20,0 C 75 % 1020,3 hPa 0,0 l/m 0 min 0 min 0,0 UV-I 197 W/m 14,6 km/h (3 Bft)
17.06.2014 18:02 20,2 C 20,0 C 76 % 1020,3 hPa 0,0 l/m 0 min 0 min 0,0 UV-I 200 W/m 12,6 km/h (3 Bft)
17.06.2014 18:06 20,2 C 20,0 C 77 % 1020,3 hPa 0,0 l/m 0 min 0 min 0,0 UV-I 206 W/m 12,6 km/h (3 Bft)
17.06.2014 18:08 20,2 C 20,0 C 76 % 1020,3 hPa 0,0 l/m 0 min 0 min 0,0 UV-I 187 W/m 12,6 km/h (3 Bft)
17.06.2014 18:10 20,2 C 20,0 C 76 % 1020,2 hPa 0,0 l/m 0 min 0 min 0,0 UV-I 170 W/m 12,6 km/h (3 Bft)
17.06.2014 18:12 20,2 C 20,0 C 75 % 1020,2 hPa 0,0 l/m 0 min 0 min 0,0 UV-I 166 W/m 8,4 km/h (2 Bft)
17.06.2014 18:14 20,2 C 20,0 C 75 % 1020,3 hPa 0,0 l/m 0 min 0 min 0,0 UV-I 166 W/m 8,4 km/h (2 Bft)
17.06.2014 18:16 20,2 C 20,0 C 74 % 1020,2 hPa 0,0 l/m 0 min 0 min 0,0 UV-I 166 W/m 8,4 km/h (2 Bft)
17.06.2014 18:18 20,2 C 20,0 C 74 % 1020,3 hPa 0,0 l/m 0 min 0 min 0,0 UV-I 166 W/m 6,3 km/h (2 Bft)
17.06.2014 18:20 20,2 C 20,0 C 75 % 1020,2 hPa 0,0 l/m 0 min 0 min 0,0 UV-I 158 W/m 8,4 km/h (2 Bft)
17.06.2014 18:22 20,2 C 20,0 C 75 % 1020,1 hPa 0,0 l/m 0 min 0 min 0,0 UV-I 150 W/m 12,6 km/h (3 Bft)
17.06.2014 18:24 20,2 C 20,0 C 75 % 1020,2 hPa 0,0 l/m 0 min 0 min 0,0 UV-I 141 W/m 10,5 km/h (2 Bft)
17.06.2014 18:26 20,2 C 20,0 C 75 % 1020,2 hPa 0,0 l/m 0 min 0 min 0,0 UV-I 138 W/m 14,6 km/h (3 Bft)
17.06.2014 18:28 20,2 C 19,4 C 75 % 1020,2 hPa 0,0 l/m 0 min 0 min 0,0 UV-I 144 W/m 10,5 km/h (2 Bft)
17.06.2014 18:30 20,1 C 19,4 C 75 % 1020,2 hPa 0,0 l/m 0 min 0 min 0,0 UV-I 160 W/m 10,5 km/h (2 Bft)
17.06.2014 18:32 20,1 C 20,0 C 75 % 1020,3 hPa 0,0 l/m 0 min 0 min 0,0 UV-I 192 W/m 4,2 km/h (1 Bft)
17.06.2014 18:34 20,1 C 20,0 C 75 % 1020,2 hPa 0,0 l/m 0 min 0 min 0,0 UV-I 192 W/m 0,0 km/h (0 Bft)
17.06.2014 18:36 20,2 C 20,0 C 75 % 1020,2 hPa 0,0 l/m 0 min 0 min 0,0 UV-I 163 W/m 12,6 km/h (3 Bft)
17.06.2014 18:38 20,1 C 20,0 C 74 % 1020,2 hPa 0,0 l/m 0 min 0 min 0,0 UV-I 160 W/m 12,6 km/h (3 Bft)
17.06.2014 18:40 20,1 C 20,0 C 74 % 1020,2 hPa 0,0 l/m 0 min 0 min 0,0 UV-I 158 W/m 10,5 km/h (2 Bft)
17.06.2014 18:42 20,1 C 20,0 C 75 % 1020,1 hPa 0,0 l/m 0 min 0 min 0,0 UV-I 158 W/m 6,3 km/h (2 Bft)
17.06.2014 18:44 20,1 C 20,0 C 75 % 1020,1 hPa 0,0 l/m 0 min 0 min 0,0 UV-I 163 W/m 8,4 km/h (2 Bft)
17.06.2014 18:46 20,1 C 20,0 C 75 % 1020,1 hPa 0,0 l/m 0 min 0 min 0,0 UV-I 170 W/m 12,6 km/h (3 Bft)
17.06.2014 18:48 20,1 C 20,0 C 74 % 1020,1 hPa 0,0 l/m 0 min 0 min 0,0 UV-I 166 W/m 8,4 km/h (2 Bft)
17.06.2014 18:50 20,1 C 20,0 C 74 % 1020,0 hPa 0,0 l/m 0 min 0 min 0,0 UV-I 150 W/m 8,4 km/h (2 Bft)
17.06.2014 18:52 20,1 C 20,0 C 74 % 1020,1 hPa 0,0 l/m 0 min 0 min 0,0 UV-I 133 W/m 8,4 km/h (2 Bft)
17.06.2014 18:54 20,1 C 20,0 C 75 % 1020,0 hPa 0,0 l/m 0 min 0 min 0,0 UV-I 109 W/m 0,0 km/h (0 Bft)
17.06.2014 18:56 20,1 C 20,0 C 76 % 1020,1 hPa 0,0 l/m 0 min 0 min 0,0 UV-I 89 W/m 0,0 km/h (0 Bft)
17.06.2014 18:58 20,1 C 19,4 C 75 % 1020,1 hPa 0,0 l/m 0 min 0 min 0,0 UV-I 79 W/m 10,5 km/h (2 Bft)
17.06.2014 19:00 20,1 C 19,4 C 75 % 1020,1 hPa 0,0 l/m 0 min 0 min 0,0 UV-I 46 W/m 12,6 km/h (3 Bft)
17.06.2014 19:02 20,0 C 18,9 C 76 % 1020,1 hPa 0,0 l/m 0 min 0 min 0,0 UV-I 38 W/m 14,6 km/h (3 Bft)
17.06.2014 19:04 19,9 C 18,9 C 76 % 1020,2 hPa 0,0 l/m 0 min 2 min 0,0 UV-I 34 W/m 10,5 km/h (2 Bft)
17.06.2014 19:06 19,8 C 18,3 C 76 % 1020,1 hPa 0,0 l/m 0 min 2 min 0,0 UV-I 43 W/m 0,0 km/h (0 Bft)
17.06.2014 19:08 19,8 C 18,3 C 77 % 1020,1 hPa 0,0 l/m 0 min 0 min 0,0 UV-I 51 W/m 0,0 km/h (0 Bft)
17.06.2014 19:10 19,7 C 18,3 C 77 % 1020,1 hPa 0,0 l/m 0 min 0 min 0,0 UV-I 61 W/m 0,0 km/h (0 Bft)
17.06.2014 19:12 19,7 C 18,3 C 78 % 1020,1 hPa 0,0 l/m 0 min 0 min 0,0 UV-I 67 W/m 0,0 km/h (0 Bft)
17.06.2014 19:14 19,6 C 18,3 C 77 % 1020,1 hPa 0,0 l/m 0 min 0 min 0,0 UV-I 69 W/m 2,1 km/h (1 Bft)
17.06.2014 19:16 19,6 C 18,9 C 77 % 1020,2 hPa 0,0 l/m 0 min 0 min 0,0 UV-I 69 W/m 0,0 km/h (0 Bft)
17.06.2014 19:18 19,6 C 18,9 C 77 % 1020,2 hPa 0,0 l/m 0 min 0 min 0,0 UV-I 64 W/m 2,1 km/h (1 Bft)
17.06.2014 19:20 19,6 C 18,9 C 76 % 1020,2 hPa 0,0 l/m 0 min 0 min 0,0 UV-I 62 W/m 0,0 km/h (0 Bft)
17.06.2014 19:22 19,6 C 18,9 C 77 % 1020,2 hPa 0,0 l/m 0 min 0 min 0,0 UV-I 64 W/m 0,0 km/h (0 Bft)
17.06.2014 19:24 19,6 C 18,9 C 77 % 1020,2 hPa 0,0 l/m 0 min 0 min 0,0 UV-I 69 W/m 0,0 km/h (0 Bft)
17.06.2014 19:26 19,5 C 18,9 C 76 % 1020,1 hPa 0,0 l/m 0 min 0 min 0,0 UV-I 69 W/m 0,0 km/h (0 Bft)
17.06.2014 19:28 19,4 C 18,9 C 76 % 1020,2 hPa 0,0 l/m 0 min 0 min 0,0 UV-I 71 W/m 2,1 km/h (1 Bft)
17.06.2014 19:30 19,5 C 18,9 C 76 % 1020,2 hPa 0,0 l/m 0 min 0 min 0,0 UV-I 72 W/m 0,0 km/h (0 Bft)
17.06.2014 19:32 19,5 C 18,9 C 76 % 1020,1 hPa 0,0 l/m 0 min 0 min 0,0 UV-I 72 W/m 0,0 km/h (0 Bft)
17.06.2014 19:34 19,5 C 18,9 C 76 % 1020,2 hPa 0,0 l/m 0 min 0 min 0,0 UV-I 72 W/m 0,0 km/h (0 Bft)
17.06.2014 19:36 19,4 C 18,9 C 76 % 1020,2 hPa 0,0 l/m 0 min 0 min 0,0 UV-I 75 W/m 0,0 km/h (0 Bft)
17.06.2014 19:38 19,4 C 18,9 C 76 % 1020,2 hPa 0,0 l/m 0 min 0 min 0,0 UV-I 77 W/m 0,0 km/h (0 Bft)
17.06.2014 19:40 19,4 C 18,9 C 76 % 1020,2 hPa 0,0 l/m 0 min 0 min 0,0 UV-I 75 W/m 0,0 km/h (0 Bft)
17.06.2014 19:42 19,4 C 18,3 C 76 % 1020,2 hPa 0,0 l/m 0 min 0 min 0,0 UV-I 75 W/m 0,0 km/h (0 Bft)
17.06.2014 19:44 19,4 C 18,3 C 77 % 1020,2 hPa 0,0 l/m 0 min 0 min 0,0 UV-I 77 W/m 0,0 km/h (0 Bft)
17.06.2014 19:46 19,4 C 18,3 C 77 % 1020,2 hPa 0,0 l/m 0 min 0 min 0,0 UV-I 79 W/m 2,1 km/h (1 Bft)
17.06.2014 19:48 19,4 C 18,3 C 78 % 1020,2 hPa 0,0 l/m 0 min 0 min 0,0 UV-I 79 W/m 0,0 km/h (0 Bft)
17.06.2014 19:50 19,3 C 18,3 C 77 % 1020,2 hPa 0,0 l/m 0 min 0 min 0,0 UV-I 79 W/m 0,0 km/h (0 Bft)
17.06.2014 19:52 19,3 C 18,3 C 76 % 1020,1 hPa 0,0 l/m 0 min 0 min 0,0 UV-I 79 W/m 0,0 km/h (0 Bft)
17.06.2014 19:54 19,3 C 18,3 C 76 % 1020,2 hPa 0,0 l/m 0 min 0 min 0,0 UV-I 80 W/m 0,0 km/h (0 Bft)
17.06.2014 19:56 19,4 C 18,3 C 76 % 1020,2 hPa 0,0 l/m 0 min 0 min 0,0 UV-I 83 W/m 0,0 km/h (0 Bft)
17.06.2014 19:58 19,4 C 18,3 C 76 % 1020,2 hPa 0,0 l/m 0 min 0 min 0,0 UV-I 89 W/m 0,0 km/h (0 Bft)
17.06.2014 20:00 19,4 C 18,3 C 76 % 1020,2 hPa 0,0 l/m 0 min 0 min 0,0 UV-I 93 W/m 0,0 km/h (0 Bft)
17.06.2014 20:02 19,4 C 18,3 C 77 % 1020,2 hPa 0,0 l/m 0 min 0 min 0,0 UV-I 101 W/m 0,0 km/h (0 Bft)
17.06.2014 20:04 19,3 C 18,3 C 77 % 1020,1 hPa 0,0 l/m 0 min 0 min 0,0 UV-I 112 W/m 0,0 km/h (0 Bft)
17.06.2014 20:06 19,4 C 18,9 C 77 % 1020,1 hPa 0,0 l/m 0 min 0 min 0,0 UV-I 117 W/m 0,0 km/h (0 Bft)
17.06.2014 20:08 19,4 C 18,9 C 77 % 1020,1 hPa 0,0 l/m 2 min 0 min 0,0 UV-I 125 W/m 0,0 km/h (0 Bft)
17.06.2014 20:10 19,4 C 18,9 C 77 % 1020,1 hPa 0,0 l/m 2 min 0 min 0,0 UV-I 136 W/m 0,0 km/h (0 Bft)
17.06.2014 20:12 19,5 C 18,9 C 78 % 1020,1 hPa 0,0 l/m 2 min 0 min 0,0 UV-I 139 W/m 0,0 km/h (0 Bft)
17.06.2014 20:14 19,5 C 18,9 C 77 % 1020,1 hPa 0,0 l/m 2 min 0 min 0,0 UV-I 146 W/m 0,0 km/h (0 Bft)
17.06.2014 20:16 19,5 C 18,9 C 77 % 1020,1 hPa 0,0 l/m 2 min 0 min 0,0 UV-I 152 W/m 0,0 km/h (0 Bft)
17.06.2014 20:18 19,5 C 19,4 C 78 % 1020,0 hPa 0,0 l/m 2 min 0 min 0,0 UV-I 152 W/m 0,0 km/h (0 Bft)
17.06.2014 20:20 19,6 C 19,4 C 79 % 1020,1 hPa 0,0 l/m 2 min 0 min 0,0 UV-I 150 W/m 2,1 km/h (1 Bft)
17.06.2014 20:22 19,6 C 19,4 C 77 % 1020,1 hPa 0,0 l/m 2 min 0 min 0,0 UV-I 150 W/m 4,2 km/h (1 Bft)
17.06.2014 20:24 19,6 C 19,4 C 77 % 1020,1 hPa 0,0 l/m 2 min 0 min 0,0 UV-I 150 W/m 4,2 km/h (1 Bft)
17.06.2014 20:26 19,6 C 19,4 C 78 % 1020,1 hPa 0,0 l/m 2 min 0 min 0,0 UV-I 150 W/m 4,2 km/h (1 Bft)
17.06.2014 20:28 19,6 C 19,4 C 77 % 1020,1 hPa 0,0 l/m 2 min 0 min 0,0 UV-I 146 W/m 8,4 km/h (2 Bft)
17.06.2014 20:30 19,7 C 19,4 C 77 % 1020,1 hPa 0,0 l/m 2 min 0 min 0,0 UV-I 160 W/m 6,3 km/h (2 Bft)
17.06.2014 20:32 19,7 C 19,4 C 76 % 1020,1 hPa 0,0 l/m 2 min 0 min 0,0 UV-I 166 W/m 8,4 km/h (2 Bft)
17.06.2014 20:34 19,7 C 19,4 C 76 % 1020,1 hPa 0,0 l/m 2 min 0 min 0,0 UV-I 171 W/m 8,4 km/h (2 Bft)
17.06.2014 20:36 19,7 C 19,4 C 76 % 1020,2 hPa 0,0 l/m 2 min 0 min 0,0 UV-I 176 W/m 10,5 km/h (2 Bft)
17.06.2014 20:38 19,8 C 19,4 C 75 % 1020,2 hPa 0,0 l/m 2 min 0 min 0,0 UV-I 155 W/m 8,4 km/h (2 Bft)
17.06.2014 20:40 19,8 C 19,4 C 75 % 1020,2 hPa 0,0 l/m 2 min 0 min 0,0 UV-I 160 W/m 8,4 km/h (2 Bft)
17.06.2014 20:42 19,8 C 19,4 C 75 % 1020,2 hPa 0,0 l/m 2 min 0 min 0,0 UV-I 147 W/m 8,4 km/h (2 Bft)
17.06.2014 20:44 19,8 C 19,4 C 75 % 1020,2 hPa 0,0 l/m 2 min 0 min 0,0 UV-I 136 W/m 6,3 km/h (2 Bft)
17.06.2014 20:46 19,9 C 19,4 C 75 % 1020,2 hPa 0,0 l/m 2 min 0 min 0,0 UV-I 123 W/m 6,3 km/h (2 Bft)
17.06.2014 20:48 19,9 C 19,4 C 75 % 1020,2 hPa 0,0 l/m 2 min 0 min 0,0 UV-I 117 W/m 6,3 km/h (2 Bft)
17.06.2014 20:50 19,8 C 18,9 C 76 % 1020,3 hPa 0,0 l/m 2 min 0 min 0,0 UV-I 105 W/m 10,5 km/h (2 Bft)
17.06.2014 20:52 19,8 C 18,9 C 75 % 1020,3 hPa 0,0 l/m 2 min 0 min 0,0 UV-I 93 W/m 12,6 km/h (3 Bft)
17.06.2014 20:54 19,8 C 18,9 C 75 % 1020,3 hPa 0,0 l/m 2 min 0 min 0,0 UV-I 85 W/m 8,4 km/h (2 Bft)
17.06.2014 20:56 19,8 C 18,9 C 75 % 1020,3 hPa 0,0 l/m 2 min 0 min 0,0 UV-I 75 W/m 14,6 km/h (3 Bft)
17.06.2014 20:58 19,7 C 18,9 C 75 % 1020,3 hPa 0,0 l/m 2 min 0 min 0,0 UV-I 71 W/m 12,6 km/h (3 Bft)
17.06.2014 21:00 19,7 C 18,9 C 76 % 1020,3 hPa 0,0 l/m 2 min 0 min 0,0 UV-I 67 W/m 14,6 km/h (3 Bft)
17.06.2014 21:02 19,7 C 18,3 C 76 % 1020,3 hPa 0,0 l/m 2 min 0 min 0,0 UV-I 61 W/m 12,6 km/h (3 Bft)
17.06.2014 21:04 19,6 C 18,3 C 76 % 1020,3 hPa 0,0 l/m 2 min 0 min 0,0 UV-I 54 W/m 8,4 km/h (2 Bft)
17.06.2014 21:06 19,6 C 18,3 C 76 % 1020,4 hPa 0,0 l/m 2 min 0 min 0,0 UV-I 51 W/m 8,4 km/h (2 Bft)
17.06.2014 21:08 19,6 C 18,3 C 76 % 1020,3 hPa 0,0 l/m 2 min 0 min 0,0 UV-I 45 W/m 0,0 km/h (0 Bft)
17.06.2014 21:10 19,5 C 18,3 C 77 % 1020,3 hPa 0,0 l/m 0 min 0 min 0,0 UV-I 40 W/m 8,4 km/h (2 Bft)
17.06.2014 21:12 19,4 C 18,3 C 76 % 1020,3 hPa 0,0 l/m 0 min 0 min 0,0 UV-I 34 W/m 20,9 km/h (4 Bft)
17.06.2014 21:14 19,4 C 18,3 C 76 % 1020,3 hPa 0,0 l/m 0 min 0 min 0,0 UV-I 26 W/m 23,0 km/h (4 Bft)
17.06.2014 21:16 19,3 C 17,8 C 75 % 1020,4 hPa 0,0 l/m 0 min 0 min 0,0 UV-I 22 W/m 20,9 km/h (4 Bft)
17.06.2014 21:18 19,3 C 17,8 C 74 % 1020,4 hPa 0,0 l/m 0 min 0 min 0,0 UV-I 21 W/m 27,2 km/h (4 Bft)
17.06.2014 21:20 19,2 C 17,8 C 74 % 1020,4 hPa 0,0 l/m 0 min 0 min 0,0 UV-I 18 W/m 25,1 km/h (4 Bft)
17.06.2014 21:22 19,2 C 17,8 C 74 % 1020,4 hPa 0,0 l/m 0 min 0 min 0,0 UV-I 16 W/m 31,4 km/h (5 Bft)
17.06.2014 21:24 19,2 C 17,8 C 74 % 1020,5 hPa 0,0 l/m 0 min 0 min 0,0 UV-I 14 W/m 23,0 km/h (4 Bft)
17.06.2014 21:26 19,1 C 17,8 C 74 % 1020,5 hPa 0,0 l/m 0 min 0 min 0,0 UV-I 16 W/m 16,7 km/h (3 Bft)
17.06.2014 21:28 19,0 C 17,8 C 74 % 1020,5 hPa 0,0 l/m 0 min 0 min 0,0 UV-I 16 W/m 16,7 km/h (3 Bft)
17.06.2014 21:30 18,9 C 17,8 C 74 % 1020,5 hPa 0,0 l/m 0 min 0 min 0,0 UV-I 18 W/m 33,5 km/h (5 Bft)
17.06.2014 21:32 18,9 C 17,8 C 75 % 1020,5 hPa 0,0 l/m 2 min 0 min 0,0 UV-I 18 W/m 27,2 km/h (4 Bft)
17.06.2014 21:34 18,9 C 17,8 C 75 % 1020,6 hPa 0,0 l/m 2 min 0 min 0,0 UV-I 21 W/m 27,2 km/h (4 Bft)
17.06.2014 21:36 18,8 C 17,8 C 75 % 1020,6 hPa 0,0 l/m 2 min 0 min 0,0 UV-I 21 W/m 18,8 km/h (3 Bft)
17.06.2014 21:38 18,8 C 17,2 C 75 % 1020,6 hPa 0,0 l/m 2 min 0 min 0,0 UV-I 18 W/m 31,4 km/h (5 Bft)
17.06.2014 21:40 18,7 C 17,2 C 75 % 1020,6 hPa 0,0 l/m 0 min 0 min 0,0 UV-I 18 W/m 31,4 km/h (5 Bft)
17.06.2014 21:42 18,7 C 17,2 C 76 % 1020,6 hPa 0,0 l/m 0 min 0 min 0,0 UV-I 16 W/m 23,0 km/h (4 Bft)
17.06.2014 21:44 18,6 C 17,2 C 76 % 1020,7 hPa 0,0 l/m 0 min 0 min 0,0 UV-I 14 W/m 20,9 km/h (4 Bft)
17.06.2014 21:46 18,6 C 17,2 C 76 % 1020,7 hPa 0,0 l/m 0 min 0 min 0,0 UV-I 14 W/m 20,9 km/h (4 Bft)
17.06.2014 21:48 18,4 C 17,2 C 76 % 1020,7 hPa 0,0 l/m 0 min 0 min 0,0 UV-I 13 W/m 23,0 km/h (4 Bft)
17.06.2014 21:50 18,4 C 16,7 C 76 % 1020,7 hPa 0,0 l/m 0 min 0 min 0,0 UV-I 10 W/m 23,0 km/h (4 Bft)
17.06.2014 21:52 18,3 C 16,7 C 77 % 1020,8 hPa 0,0 l/m 0 min 0 min 0,0 UV-I 8 W/m 20,9 km/h (4 Bft)
17.06.2014 21:54 18,2 C 16,7 C 77 % 1020,8 hPa 0,0 l/m 0 min 0 min 0,0 UV-I 6 W/m 23,0 km/h (4 Bft)
17.06.2014 21:56 18,2 C 16,7 C 77 % 1020,8 hPa 0,0 l/m 0 min 0 min 0,0 UV-I 6 W/m 27,2 km/h (4 Bft)
17.06.2014 21:58 18,1 C 16,7 C 77 % 1020,8 hPa 0,0 l/m 0 min 0 min 0,0 UV-I 6 W/m 16,7 km/h (3 Bft)
17.06.2014 22:00 18,1 C 16,7 C 77 % 1020,8 hPa 0,0 l/m 0 min 0 min 0,0 UV-I 0 W/m 29,3 km/h (5 Bft)
17.06.2014 22:02 18,0 C 16,7 C 77 % 1020,9 hPa 0,0 l/m 0 min 0 min 0,0 UV-I 0 W/m 18,8 km/h (3 Bft)
17.06.2014 22:04 17,9 C 16,7 C 77 % 1020,9 hPa 0,0 l/m 0 min 0 min 0,0 UV-I 0 W/m 23,0 km/h (4 Bft)
17.06.2014 22:06 17,9 C 16,7 C 77 % 1020,9 hPa 0,0 l/m 0 min 0 min 0,0 UV-I 0 W/m 23,0 km/h (4 Bft)
17.06.2014 22:08 17,9 C 16,7 C 78 % 1020,9 hPa 0,0 l/m 0 min 0 min 0,0 UV-I 0 W/m 14,6 km/h (3 Bft)
17.06.2014 22:10 17,8 C 16,7 C 78 % 1021,0 hPa 0,0 l/m 0 min 0 min 0,0 UV-I 0 W/m 14,6 km/h (3 Bft)
17.06.2014 22:12 17,8 C 16,7 C 78 % 1021,0 hPa 0,0 l/m 0 min 0 min 0,0 UV-I 0 W/m 16,7 km/h (3 Bft)
17.06.2014 22:14 17,8 C 16,7 C 78 % 1021,0 hPa 0,0 l/m 0 min 0 min 0,0 UV-I 0 W/m 16,7 km/h (3 Bft)
17.06.2014 22:16 17,7 C 16,7 C 79 % 1021,0 hPa 0,0 l/m 0 min 0 min 0,0 UV-I 0 W/m 23,0 km/h (4 Bft)
17.06.2014 22:18 17,7 C 16,7 C 79 % 1021,0 hPa 0,0 l/m 0 min 0 min 0,0 UV-I 0 W/m 16,7 km/h (3 Bft)
17.06.2014 22:20 17,7 C 16,1 C 79 % 1021,0 hPa 0,0 l/m 0 min 0 min 0,0 UV-I 0 W/m 14,6 km/h (3 Bft)
17.06.2014 22:22 17,6 C 16,1 C 79 % 1021,0 hPa 0,0 l/m 0 min 0 min 0,0 UV-I 0 W/m 23,0 km/h (4 Bft)
17.06.2014 22:24 17,6 C 16,1 C 79 % 1021,1 hPa 0,0 l/m 0 min 0 min 0,0 UV-I 0 W/m 20,9 km/h (4 Bft)
17.06.2014 22:26 17,5 C 16,1 C 79 % 1021,1 hPa 0,0 l/m 0 min 0 min 0,0 UV-I 0 W/m 16,7 km/h (3 Bft)
17.06.2014 22:28 17,4 C 16,1 C 79 % 1021,1 hPa 0,0 l/m 0 min 0 min 0,0 UV-I 0 W/m 25,1 km/h (4 Bft)
17.06.2014 22:30 17,4 C 16,1 C 79 % 1021,0 hPa 0,0 l/m 0 min 0 min 0,0 UV-I 0 W/m 18,8 km/h (3 Bft)
17.06.2014 22:32 17,3 C 16,1 C 79 % 1021,1 hPa 0,0 l/m 0 min 0 min 0,0 UV-I 0 W/m 20,9 km/h (4 Bft)
17.06.2014 22:34 17,3 C 16,1 C 79 % 1021,2 hPa 0,0 l/m 0 min 0 min 0,0 UV-I 0 W/m 16,7 km/h (3 Bft)
17.06.2014 22:36 17,3 C 16,1 C 79 % 1021,2 hPa 0,0 l/m 0 min 0 min 0,0 UV-I 0 W/m 23,0 km/h (4 Bft)
17.06.2014 22:38 17,2 C 15,6 C 79 % 1021,2 hPa 0,0 l/m 0 min 0 min 0,0 UV-I 0 W/m 18,8 km/h (3 Bft)
17.06.2014 22:40 17,2 C 15,6 C 79 % 1021,2 hPa 0,0 l/m 0 min 0 min 0,0 UV-I 0 W/m 18,8 km/h (3 Bft)
17.06.2014 22:42 17,1 C 15,6 C 79 % 1021,2 hPa 0,0 l/m 0 min 0 min 0,0 UV-I 0 W/m 18,8 km/h (3 Bft)
17.06.2014 22:44 17,1 C 15,6 C 79 % 1021,3 hPa 0,0 l/m 0 min 0 min 0,0 UV-I 0 W/m 14,6 km/h (3 Bft)
17.06.2014 22:46 17,1 C 15,6 C 79 % 1021,2 hPa 0,0 l/m 0 min 0 min 0,0 UV-I 0 W/m 16,7 km/h (3 Bft)
17.06.2014 22:48 17,0 C 15,6 C 79 % 1021,3 hPa 0,0 l/m 0 min 0 min 0,0 UV-I 0 W/m 12,6 km/h (3 Bft)
17.06.2014 22:50 17,0 C 15,6 C 80 % 1021,3 hPa 0,0 l/m 0 min 0 min 0,0 UV-I 0 W/m 8,4 km/h (2 Bft)
17.06.2014 22:52 16,9 C 15,6 C 80 % 1021,4 hPa 0,0 l/m 0 min 0 min 0,0 UV-I 0 W/m 12,6 km/h (3 Bft)
17.06.2014 22:54 16,9 C 15,6 C 80 % 1021,3 hPa 0,0 l/m 0 min 0 min 0,0 UV-I 0 W/m 12,6 km/h (3 Bft)
17.06.2014 22:56 16,8 C 15,6 C 80 % 1021,4 hPa 0,0 l/m 0 min 0 min 0,0 UV-I 0 W/m 14,6 km/h (3 Bft)
17.06.2014 22:58 16,8 C 15,6 C 80 % 1021,3 hPa 0,0 l/m 0 min 0 min 0,0 UV-I 0 W/m 16,7 km/h (3 Bft)
17.06.2014 23:00 16,8 C 15,6 C 80 % 1021,3 hPa 0,0 l/m 0 min 0 min 0,0 UV-I 0 W/m 23,0 km/h (4 Bft)
17.06.2014 23:02 16,8 C 15,6 C 80 % 1021,4 hPa 0,0 l/m 0 min 0 min 0,0 UV-I 0 W/m 16,7 km/h (3 Bft)
17.06.2014 23:04 16,7 C 15,6 C 80 % 1021,4 hPa 0,0 l/m 0 min 0 min 0,0 UV-I 0 W/m 18,8 km/h (3 Bft)
17.06.2014 23:06 16,7 C 15,6 C 80 % 1021,4 hPa 0,0 l/m 0 min 0 min 0,0 UV-I 0 W/m 16,7 km/h (3 Bft)
17.06.2014 23:08 16,7 C 15,6 C 80 % 1021,4 hPa 0,0 l/m 0 min 0 min 0,0 UV-I 0 W/m 12,6 km/h (3 Bft)
17.06.2014 23:10 16,7 C 15,6 C 80 % 1021,4 hPa 0,0 l/m 0 min 0 min 0,0 UV-I 0 W/m 14,6 km/h (3 Bft)
17.06.2014 23:12 16,6 C 15,0 C 80 % 1021,4 hPa 0,0 l/m 0 min 0 min 0,0 UV-I 0 W/m 18,8 km/h (3 Bft)
17.06.2014 23:14 16,6 C 15,0 C 80 % 1021,5 hPa 0,0 l/m 0 min 0 min 0,0 UV-I 0 W/m 12,6 km/h (3 Bft)
17.06.2014 23:16 16,6 C 15,0 C 80 % 1021,5 hPa 0,0 l/m 0 min 0 min 0,0 UV-I 0 W/m 10,5 km/h (2 Bft)
17.06.2014 23:18 16,5 C 15,0 C 80 % 1021,4 hPa 0,0 l/m 0 min 0 min 0,0 UV-I 0 W/m 8,4 km/h (2 Bft)
17.06.2014 23:20 16,4 C 15,0 C 80 % 1021,5 hPa 0,0 l/m 0 min 0 min 0,0 UV-I 0 W/m 8,4 km/h (2 Bft)
17.06.2014 23:22 16,4 C 15,0 C 81 % 1021,4 hPa 0,0 l/m 0 min 0 min 0,0 UV-I 0 W/m 10,5 km/h (2 Bft)
17.06.2014 23:24 16,3 C 15,0 C 81 % 1021,5 hPa 0,0 l/m 0 min 0 min 0,0 UV-I 0 W/m 12,6 km/h (3 Bft)
17.06.2014 23:26 16,3 C 15,0 C 81 % 1021,5 hPa 0,0 l/m 0 min 0 min 0,0 UV-I 0 W/m 6,3 km/h (2 Bft)
17.06.2014 23:28 16,2 C 15,0 C 82 % 1021,5 hPa 0,0 l/m 0 min 0 min 0,0 UV-I 0 W/m 12,6 km/h (3 Bft)
17.06.2014 23:30 16,2 C 15,0 C 83 % 1021,5 hPa 0,0 l/m 0 min 0 min 0,0 UV-I 0 W/m 16,7 km/h (3 Bft)
17.06.2014 23:32 16,1 C 14,4 C 82 % 1021,6 hPa 0,0 l/m 0 min 0 min 0,0 UV-I 0 W/m 8,4 km/h (2 Bft)
17.06.2014 23:34 16,0 C 14,4 C 82 % 1021,5 hPa 0,0 l/m 0 min 0 min 0,0 UV-I 0 W/m 14,6 km/h (3 Bft)
17.06.2014 23:36 15,9 C 14,4 C 83 % 1021,5 hPa 0,0 l/m 0 min 0 min 0,0 UV-I 0 W/m 12,6 km/h (3 Bft)
17.06.2014 23:38 15,9 C 14,4 C 83 % 1021,6 hPa 0,0 l/m 0 min 0 min 0,0 UV-I 0 W/m 14,6 km/h (3 Bft)
17.06.2014 23:40 15,8 C 14,4 C 83 % 1021,5 hPa 0,0 l/m 0 min 0 min 0,0 UV-I 0 W/m 12,6 km/h (3 Bft)
17.06.2014 23:42 15,8 C 14,4 C 83 % 1021,5 hPa 0,0 l/m 0 min 0 min 0,0 UV-I 0 W/m 14,6 km/h (3 Bft)
17.06.2014 23:44 15,8 C 14,4 C 83 % 1021,6 hPa 0,0 l/m 0 min 0 min 0,0 UV-I 0 W/m 6,3 km/h (2 Bft)
17.06.2014 23:46 15,7 C 14,4 C 83 % 1021,6 hPa 0,0 l/m 0 min 0 min 0,0 UV-I 0 W/m 10,5 km/h (2 Bft)
17.06.2014 23:48 15,7 C 14,4 C 83 % 1021,6 hPa 0,0 l/m 0 min 0 min 0,0 UV-I 0 W/m 8,4 km/h (2 Bft)
17.06.2014 23:50 15,7 C 14,4 C 83 % 1021,7 hPa 0,0 l/m 0 min 0 min 0,0 UV-I 0 W/m 0,0 km/h (0 Bft)
17.06.2014 23:52 15,6 C 14,4 C 83 % 1021,7 hPa 0,0 l/m 0 min 0 min 0,0 UV-I 0 W/m 10,5 km/h (2 Bft)
17.06.2014 23:54 15,6 C 14,4 C 83 % 1021,7 hPa 0,0 l/m 0 min 0 min 0,0 UV-I 0 W/m 10,5 km/h (2 Bft)
17.06.2014 23:56 15,6 C 14,4 C 83 % 1021,7 hPa 0,0 l/m 0 min 0 min 0,0 UV-I 0 W/m 10,5 km/h (2 Bft)
17.06.2014 23:58 15,6 C 14,4 C 83 % 1021,7 hPa 0,0 l/m 0 min 0 min 0,0 UV-I 0 W/m 12,6 km/h (3 Bft)
_ Min-Zeit 04:30 04:12 17:34 18:50 - - - - - 02:44
Minimum _ 10,3 C 8,9 C 71 % 1020,0 hPa - - - - - 0,0 km/h (0 Bft)
_ Max-Zeit 16:38 15:54 05:10 09:18 00:00 08:54 19:04 15:24 15:52 21:30
Maximum _ 20,8 C 24,4 C 92 % 1022,5 hPa 0,0 l/m 2 min 2 min 3,3 UV-I 859 W/m 33,5 km/h
NO (5 Bft)
Durchschnitt _ 16,0 C 15,7 C 82 % 1021,4 hPa #0,0 l/m #3:16 h #4 min. 1,1 UV-I 226 W/m 10,2 km/h (2 Bft)
© 2014 W. Hausmann